<?xml version="1.0" encoding="utf-8"?>
<gpx xmlns:xsi="http://www.w3.org/2001/XMLSchema-instance" xmlns:xsd="http://www.w3.org/2001/XMLSchema" version="1.1" creator="Shapelink.com" xmlns="http://www.topografix.com/GPX/1/1" xmlns:gpxtpx="http://www.garmin.com/xmlschemas/TrackPointExtension/v1">
  <metadata>
    <name>Ejecutar 8.95 km, 2020-01-07</name>
    <desc></desc>
    <author><name>Per Rooth</name></author> 
    <time>2020-01-07T18:07:39Z</time>
  </metadata>
  <trk>
    <name>Ejecutar 8.95 km, 2020-01-07</name>
    <trkseg>
      <trkpt lat="56.891063895253" lon="14.824188442156">
        <ele>174.4</ele>
        <time>2020-01-07T18:07:39Z</time>
      </trkpt>
      <trkpt lat="56.891042521408" lon="14.824224065231">
        <ele>175</ele>
        <time>2020-01-07T18:07:40Z</time>
      </trkpt>
      <trkpt lat="56.891027350169" lon="14.824265890912">
        <ele>173.2</ele>
        <time>2020-01-07T18:07:41Z</time>
      </trkpt>
      <trkpt lat="56.890996923872" lon="14.82435574488">
        <ele>172.6</ele>
        <time>2020-01-07T18:07:43Z</time>
      </trkpt>
      <trkpt lat="56.890875134865" lon="14.824616673427">
        <ele>172.8</ele>
        <time>2020-01-07T18:07:50Z</time>
      </trkpt>
      <trkpt lat="56.890799194851" lon="14.82475220875">
        <ele>171.8</ele>
        <time>2020-01-07T18:07:54Z</time>
      </trkpt>
      <trkpt lat="56.890761811577" lon="14.824885564779">
        <ele>171.2</ele>
        <time>2020-01-07T18:07:57Z</time>
      </trkpt>
      <trkpt lat="56.890733229298" lon="14.824976927489">
        <ele>170.4</ele>
        <time>2020-01-07T18:07:59Z</time>
      </trkpt>
      <trkpt lat="56.89063666981" lon="14.825202568237">
        <ele>169.2</ele>
        <time>2020-01-07T18:08:04Z</time>
      </trkpt>
      <trkpt lat="56.890501050668" lon="14.825422174017">
        <ele>169</ele>
        <time>2020-01-07T18:08:11Z</time>
      </trkpt>
      <trkpt lat="56.890389655217" lon="14.825731885222">
        <ele>168.6</ele>
        <time>2020-01-07T18:08:19Z</time>
      </trkpt>
      <trkpt lat="56.890362414042" lon="14.825877562644">
        <ele>168</ele>
        <time>2020-01-07T18:08:22Z</time>
      </trkpt>
      <trkpt lat="56.890315307764" lon="14.826037237839">
        <ele>167.2</ele>
        <time>2020-01-07T18:08:26Z</time>
      </trkpt>
      <trkpt lat="56.890285719657" lon="14.826377291522">
        <ele>167.4</ele>
        <time>2020-01-07T18:08:34Z</time>
      </trkpt>
      <trkpt lat="56.890310949176" lon="14.826734444281">
        <ele>167</ele>
        <time>2020-01-07T18:08:42Z</time>
      </trkpt>
      <trkpt lat="56.890312541737" lon="14.826780963826">
        <ele>167</ele>
        <time>2020-01-07T18:08:43Z</time>
      </trkpt>
      <trkpt lat="56.890302232" lon="14.826974669535">
        <ele>166.8</ele>
        <time>2020-01-07T18:08:48Z</time>
      </trkpt>
      <trkpt lat="56.890305333303" lon="14.827337019072">
        <ele>166.6</ele>
        <time>2020-01-07T18:08:56Z</time>
      </trkpt>
      <trkpt lat="56.890285552019" lon="14.827633654513">
        <ele>166.4</ele>
        <time>2020-01-07T18:09:03Z</time>
      </trkpt>
      <trkpt lat="56.890281863983" lon="14.827741781023">
        <ele>166.4</ele>
        <time>2020-01-07T18:09:06Z</time>
      </trkpt>
      <trkpt lat="56.890216066068" lon="14.828078733403">
        <ele>166.8</ele>
        <time>2020-01-07T18:09:13Z</time>
      </trkpt>
      <trkpt lat="56.890069298999" lon="14.828274869863">
        <ele>167</ele>
        <time>2020-01-07T18:09:20Z</time>
      </trkpt>
      <trkpt lat="56.889951365666" lon="14.828421888389">
        <ele>167</ele>
        <time>2020-01-07T18:09:26Z</time>
      </trkpt>
      <trkpt lat="56.889849357943" lon="14.828699999831">
        <ele>166.6</ele>
        <time>2020-01-07T18:09:33Z</time>
      </trkpt>
      <trkpt lat="56.889830750125" lon="14.829059164246">
        <ele>166.6</ele>
        <time>2020-01-07T18:09:41Z</time>
      </trkpt>
      <trkpt lat="56.889832510324" lon="14.829177684312">
        <ele>166.6</ele>
        <time>2020-01-07T18:09:44Z</time>
      </trkpt>
      <trkpt lat="56.889801497294" lon="14.82923652525">
        <ele>166.8</ele>
        <time>2020-01-07T18:09:46Z</time>
      </trkpt>
      <trkpt lat="56.889666632523" lon="14.829274076162">
        <ele>166.8</ele>
        <time>2020-01-07T18:09:52Z</time>
      </trkpt>
      <trkpt lat="56.889480973438" lon="14.829355464411">
        <ele>166.6</ele>
        <time>2020-01-07T18:10:01Z</time>
      </trkpt>
      <trkpt lat="56.889448200209" lon="14.829348255977">
        <ele>166.4</ele>
        <time>2020-01-07T18:10:02Z</time>
      </trkpt>
      <trkpt lat="56.889269330463" lon="14.829426878199">
        <ele>166.4</ele>
        <time>2020-01-07T18:10:11Z</time>
      </trkpt>
      <trkpt lat="56.889153744062" lon="14.829478343065">
        <ele>165.8</ele>
        <time>2020-01-07T18:10:16Z</time>
      </trkpt>
      <trkpt lat="56.889016616178" lon="14.829517151262">
        <ele>165.8</ele>
        <time>2020-01-07T18:10:21Z</time>
      </trkpt>
      <trkpt lat="56.888806398126" lon="14.829571465974">
        <ele>165.6</ele>
        <time>2020-01-07T18:10:28Z</time>
      </trkpt>
      <trkpt lat="56.888600790119" lon="14.829625529229">
        <ele>165.6</ele>
        <time>2020-01-07T18:10:35Z</time>
      </trkpt>
      <trkpt lat="56.888431224282" lon="14.829781013474">
        <ele>165.8</ele>
        <time>2020-01-07T18:10:41Z</time>
      </trkpt>
      <trkpt lat="56.888369784955" lon="14.830107572298">
        <ele>166.6</ele>
        <time>2020-01-07T18:10:49Z</time>
      </trkpt>
      <trkpt lat="56.888334832432" lon="14.830392724536">
        <ele>166.6</ele>
        <time>2020-01-07T18:10:55Z</time>
      </trkpt>
      <trkpt lat="56.888311027836" lon="14.830622556234">
        <ele>166.8</ele>
        <time>2020-01-07T18:11:00Z</time>
      </trkpt>
      <trkpt lat="56.888299125538" lon="14.830979625174">
        <ele>167.4</ele>
        <time>2020-01-07T18:11:07Z</time>
      </trkpt>
      <trkpt lat="56.888291246552" lon="14.831101078905">
        <ele>168.2</ele>
        <time>2020-01-07T18:11:10Z</time>
      </trkpt>
      <trkpt lat="56.888287307059" lon="14.831258826263">
        <ele>169.2</ele>
        <time>2020-01-07T18:11:14Z</time>
      </trkpt>
      <trkpt lat="56.888292000923" lon="14.831525873597">
        <ele>170.6</ele>
        <time>2020-01-07T18:11:20Z</time>
      </trkpt>
      <trkpt lat="56.888292671475" lon="14.831657804703">
        <ele>171.6</ele>
        <time>2020-01-07T18:11:24Z</time>
      </trkpt>
      <trkpt lat="56.888286887964" lon="14.831727374473">
        <ele>172</ele>
        <time>2020-01-07T18:11:26Z</time>
      </trkpt>
      <trkpt lat="56.888284876308" lon="14.831895683025">
        <ele>172.8</ele>
        <time>2020-01-07T18:11:30Z</time>
      </trkpt>
      <trkpt lat="56.888272806372" lon="14.832130543863">
        <ele>174</ele>
        <time>2020-01-07T18:11:35Z</time>
      </trkpt>
      <trkpt lat="56.888269202155" lon="14.832486020242">
        <ele>174.6</ele>
        <time>2020-01-07T18:11:42Z</time>
      </trkpt>
      <trkpt lat="56.888274734209" lon="14.832590291078">
        <ele>175.2</ele>
        <time>2020-01-07T18:11:44Z</time>
      </trkpt>
      <trkpt lat="56.888271800544" lon="14.83289773917">
        <ele>175.8</ele>
        <time>2020-01-07T18:11:51Z</time>
      </trkpt>
      <trkpt lat="56.888284121937" lon="14.833137293872">
        <ele>176.4</ele>
        <time>2020-01-07T18:11:57Z</time>
      </trkpt>
      <trkpt lat="56.888297616796" lon="14.833269141159">
        <ele>176.6</ele>
        <time>2020-01-07T18:12:00Z</time>
      </trkpt>
      <trkpt lat="56.888343046694" lon="14.833620007493">
        <ele>177.4</ele>
        <time>2020-01-07T18:12:08Z</time>
      </trkpt>
      <trkpt lat="56.88834757292" lon="14.833711789298">
        <ele>177.6</ele>
        <time>2020-01-07T18:12:10Z</time>
      </trkpt>
      <trkpt lat="56.888368192394" lon="14.834046478565">
        <ele>178</ele>
        <time>2020-01-07T18:12:17Z</time>
      </trkpt>
      <trkpt lat="56.888372550982" lon="14.834377312158">
        <ele>178.4</ele>
        <time>2020-01-07T18:12:25Z</time>
      </trkpt>
      <trkpt lat="56.88836936586" lon="14.834440595503">
        <ele>178.8</ele>
        <time>2020-01-07T18:12:27Z</time>
      </trkpt>
      <trkpt lat="56.888345477445" lon="14.834686771906">
        <ele>179.8</ele>
        <time>2020-01-07T18:12:34Z</time>
      </trkpt>
      <trkpt lat="56.888297030063" lon="14.834914256672">
        <ele>181</ele>
        <time>2020-01-07T18:12:40Z</time>
      </trkpt>
      <trkpt lat="56.888256377848" lon="14.835254980907">
        <ele>182</ele>
        <time>2020-01-07T18:12:49Z</time>
      </trkpt>
      <trkpt lat="56.888241877161" lon="14.835619174462">
        <ele>181.2</ele>
        <time>2020-01-07T18:12:57Z</time>
      </trkpt>
      <trkpt lat="56.888200554394" lon="14.835954282824">
        <ele>181</ele>
        <time>2020-01-07T18:13:05Z</time>
      </trkpt>
      <trkpt lat="56.888190999028" lon="14.835990492632">
        <ele>181</ele>
        <time>2020-01-07T18:13:06Z</time>
      </trkpt>
      <trkpt lat="56.888109359322" lon="14.836275812508">
        <ele>180</ele>
        <time>2020-01-07T18:13:13Z</time>
      </trkpt>
      <trkpt lat="56.88806175013" lon="14.836421154654">
        <ele>180.2</ele>
        <time>2020-01-07T18:13:17Z</time>
      </trkpt>
      <trkpt lat="56.887988576143" lon="14.8367592805">
        <ele>181</ele>
        <time>2020-01-07T18:13:25Z</time>
      </trkpt>
      <trkpt lat="56.887944654987" lon="14.83710545297">
        <ele>181.2</ele>
        <time>2020-01-07T18:13:33Z</time>
      </trkpt>
      <trkpt lat="56.887932082137" lon="14.83731500047">
        <ele>182</ele>
        <time>2020-01-07T18:13:38Z</time>
      </trkpt>
      <trkpt lat="56.887917916726" lon="14.837671901772">
        <ele>182.2</ele>
        <time>2020-01-07T18:13:46Z</time>
      </trkpt>
      <trkpt lat="56.887878102701" lon="14.838010949627">
        <ele>181.8</ele>
        <time>2020-01-07T18:13:54Z</time>
      </trkpt>
      <trkpt lat="56.887832337527" lon="14.83835603245">
        <ele>182.2</ele>
        <time>2020-01-07T18:14:02Z</time>
      </trkpt>
      <trkpt lat="56.887811382777" lon="14.83871896872">
        <ele>182</ele>
        <time>2020-01-07T18:14:11Z</time>
      </trkpt>
      <trkpt lat="56.887805766904" lon="14.83877177469">
        <ele>183.2</ele>
        <time>2020-01-07T18:14:13Z</time>
      </trkpt>
      <trkpt lat="56.887788332552" lon="14.838875877888">
        <ele>183.4</ele>
        <time>2020-01-07T18:14:17Z</time>
      </trkpt>
      <trkpt lat="56.887746506871" lon="14.839345599564">
        <ele>184</ele>
        <time>2020-01-07T18:16:12Z</time>
      </trkpt>
      <trkpt lat="56.887773915684" lon="14.839469735503">
        <ele>184</ele>
        <time>2020-01-07T18:16:17Z</time>
      </trkpt>
      <trkpt lat="56.88789746489" lon="14.839756145026">
        <ele>184</ele>
        <time>2020-01-07T18:16:25Z</time>
      </trkpt>
      <trkpt lat="56.887972650533" lon="14.840087230076">
        <ele>183.6</ele>
        <time>2020-01-07T18:16:33Z</time>
      </trkpt>
      <trkpt lat="56.888026378512" lon="14.840322510009">
        <ele>184.2</ele>
        <time>2020-01-07T18:16:39Z</time>
      </trkpt>
      <trkpt lat="56.888095110092" lon="14.840639513467">
        <ele>185</ele>
        <time>2020-01-07T18:16:47Z</time>
      </trkpt>
      <trkpt lat="56.888175995427" lon="14.840846043483">
        <ele>185.4</ele>
        <time>2020-01-07T18:16:53Z</time>
      </trkpt>
      <trkpt lat="56.888271381449" lon="14.841033043672">
        <ele>186.4</ele>
        <time>2020-01-07T18:17:00Z</time>
      </trkpt>
      <trkpt lat="56.888279595711" lon="14.841026421971">
        <ele>186.6</ele>
        <time>2020-01-07T18:17:01Z</time>
      </trkpt>
      <trkpt lat="56.88826207754" lon="14.840970179422">
        <ele>186.6</ele>
        <time>2020-01-07T18:17:04Z</time>
      </trkpt>
      <trkpt lat="56.888177252712" lon="14.84082701657">
        <ele>185.8</ele>
        <time>2020-01-07T18:17:09Z</time>
      </trkpt>
      <trkpt lat="56.888120926344" lon="14.840727104322">
        <ele>185.4</ele>
        <time>2020-01-07T18:17:12Z</time>
      </trkpt>
      <trkpt lat="56.888071640772" lon="14.840645632254">
        <ele>184.4</ele>
        <time>2020-01-07T18:17:15Z</time>
      </trkpt>
      <trkpt lat="56.887975248922" lon="14.840331897737">
        <ele>184.4</ele>
        <time>2020-01-07T18:17:23Z</time>
      </trkpt>
      <trkpt lat="56.887929986662" lon="14.840004165447">
        <ele>183.2</ele>
        <time>2020-01-07T18:17:31Z</time>
      </trkpt>
      <trkpt lat="56.887860919806" lon="14.839683473953">
        <ele>183.8</ele>
        <time>2020-01-07T18:17:39Z</time>
      </trkpt>
      <trkpt lat="56.887843233997" lon="14.839651622733">
        <ele>183.8</ele>
        <time>2020-01-07T18:17:40Z</time>
      </trkpt>
      <trkpt lat="56.887773999503" lon="14.839494713565">
        <ele>184</ele>
        <time>2020-01-07T18:17:45Z</time>
      </trkpt>
      <trkpt lat="56.886990291853" lon="14.839169495845">
        <ele>184</ele>
        <time>2020-01-07T18:24:57Z</time>
      </trkpt>
      <trkpt lat="56.886983753971" lon="14.839161281583">
        <ele>183.8</ele>
        <time>2020-01-07T18:24:58Z</time>
      </trkpt>
      <trkpt lat="56.886973528053" lon="14.839151390941">
        <ele>184.6</ele>
        <time>2020-01-07T18:24:59Z</time>
      </trkpt>
      <trkpt lat="56.886959614099" lon="14.839137141711">
        <ele>183.6</ele>
        <time>2020-01-07T18:25:00Z</time>
      </trkpt>
      <trkpt lat="56.886920219169" lon="14.839106883052">
        <ele>183.6</ele>
        <time>2020-01-07T18:25:02Z</time>
      </trkpt>
      <trkpt lat="56.886760460155" lon="14.838932623351">
        <ele>184.6</ele>
        <time>2020-01-07T18:25:10Z</time>
      </trkpt>
      <trkpt lat="56.886689716919" lon="14.838883840693">
        <ele>184.8</ele>
        <time>2020-01-07T18:25:13Z</time>
      </trkpt>
      <trkpt lat="56.886531299009" lon="14.838721315652">
        <ele>185.2</ele>
        <time>2020-01-07T18:25:22Z</time>
      </trkpt>
      <trkpt lat="56.886396769514" lon="14.838501793691">
        <ele>185.4</ele>
        <time>2020-01-07T18:25:30Z</time>
      </trkpt>
      <trkpt lat="56.886264503132" lon="14.838276236762">
        <ele>185.8</ele>
        <time>2020-01-07T18:25:38Z</time>
      </trkpt>
      <trkpt lat="56.886108432154" lon="14.838064258511">
        <ele>185.8</ele>
        <time>2020-01-07T18:25:46Z</time>
      </trkpt>
      <trkpt lat="56.885942889629" lon="14.837898464529">
        <ele>185.4</ele>
        <time>2020-01-07T18:25:55Z</time>
      </trkpt>
      <trkpt lat="56.885875666791" lon="14.837844485093">
        <ele>184.8</ele>
        <time>2020-01-07T18:25:59Z</time>
      </trkpt>
      <trkpt lat="56.885801906071" lon="14.837775921151">
        <ele>183.6</ele>
        <time>2020-01-07T18:26:03Z</time>
      </trkpt>
      <trkpt lat="56.885722278021" lon="14.837689839038">
        <ele>182.4</ele>
        <time>2020-01-07T18:26:07Z</time>
      </trkpt>
      <trkpt lat="56.885564111568" lon="14.837547514376">
        <ele>181.4</ele>
        <time>2020-01-07T18:26:15Z</time>
      </trkpt>
      <trkpt lat="56.885385744736" lon="14.837395885805">
        <ele>180.6</ele>
        <time>2020-01-07T18:26:23Z</time>
      </trkpt>
      <trkpt lat="56.885321287925" lon="14.837312904995">
        <ele>180.2</ele>
        <time>2020-01-07T18:26:26Z</time>
      </trkpt>
      <trkpt lat="56.885237301287" lon="14.837205951951">
        <ele>179.2</ele>
        <time>2020-01-07T18:26:30Z</time>
      </trkpt>
      <trkpt lat="56.885103107068" lon="14.836978634823">
        <ele>178.8</ele>
        <time>2020-01-07T18:26:38Z</time>
      </trkpt>
      <trkpt lat="56.885011660539" lon="14.836817869981">
        <ele>178.2</ele>
        <time>2020-01-07T18:26:42Z</time>
      </trkpt>
      <trkpt lat="56.884866653669" lon="14.83662014096">
        <ele>178.2</ele>
        <time>2020-01-07T18:26:49Z</time>
      </trkpt>
      <trkpt lat="56.884719802781" lon="14.83641310803">
        <ele>178.4</ele>
        <time>2020-01-07T18:26:57Z</time>
      </trkpt>
      <trkpt lat="56.884577059024" lon="14.836209092584">
        <ele>178.8</ele>
        <time>2020-01-07T18:27:04Z</time>
      </trkpt>
      <trkpt lat="56.884554679351" lon="14.836179672115">
        <ele>178.8</ele>
        <time>2020-01-07T18:27:05Z</time>
      </trkpt>
      <trkpt lat="56.88439969802" lon="14.835979931438">
        <ele>178.2</ele>
        <time>2020-01-07T18:27:13Z</time>
      </trkpt>
      <trkpt lat="56.884252679494" lon="14.835792595973">
        <ele>176.8</ele>
        <time>2020-01-07T18:27:19Z</time>
      </trkpt>
      <trkpt lat="56.884188893235" lon="14.835711710638">
        <ele>175.8</ele>
        <time>2020-01-07T18:27:22Z</time>
      </trkpt>
      <trkpt lat="56.88410633152" lon="14.835625963801">
        <ele>174.6</ele>
        <time>2020-01-07T18:27:26Z</time>
      </trkpt>
      <trkpt lat="56.884075402309" lon="14.835607272164">
        <ele>173.8</ele>
        <time>2020-01-07T18:27:28Z</time>
      </trkpt>
      <trkpt lat="56.884019662674" lon="14.835354390241">
        <ele>172.8</ele>
        <time>2020-01-07T18:28:07Z</time>
      </trkpt>
      <trkpt lat="56.88395797189" lon="14.835332429663">
        <ele>172.6</ele>
        <time>2020-01-07T18:28:12Z</time>
      </trkpt>
      <trkpt lat="56.883769798235" lon="14.835180214359">
        <ele>172.4</ele>
        <time>2020-01-07T18:28:21Z</time>
      </trkpt>
      <trkpt lat="56.883580032019" lon="14.835041661552">
        <ele>173.2</ele>
        <time>2020-01-07T18:28:28Z</time>
      </trkpt>
      <trkpt lat="56.883387835052" lon="14.834927583893">
        <ele>173.6</ele>
        <time>2020-01-07T18:28:34Z</time>
      </trkpt>
      <trkpt lat="56.883202175967" lon="14.834850889508">
        <ele>173</ele>
        <time>2020-01-07T18:28:41Z</time>
      </trkpt>
      <trkpt lat="56.883043338962" lon="14.834695153806">
        <ele>173</ele>
        <time>2020-01-07T18:28:48Z</time>
      </trkpt>
      <trkpt lat="56.882988437517" lon="14.834362811471">
        <ele>172.6</ele>
        <time>2020-01-07T18:28:55Z</time>
      </trkpt>
      <trkpt lat="56.883072759431" lon="14.8340686906">
        <ele>173.2</ele>
        <time>2020-01-07T18:29:02Z</time>
      </trkpt>
      <trkpt lat="56.883181640312" lon="14.833807594415">
        <ele>172.2</ele>
        <time>2020-01-07T18:29:11Z</time>
      </trkpt>
      <trkpt lat="56.883221957251" lon="14.833671220902">
        <ele>172</ele>
        <time>2020-01-07T18:29:16Z</time>
      </trkpt>
      <trkpt lat="56.883222963079" lon="14.833608105195">
        <ele>171.8</ele>
        <time>2020-01-07T18:29:19Z</time>
      </trkpt>
      <trkpt lat="56.883293622496" lon="14.833429403087">
        <ele>171</ele>
        <time>2020-01-07T18:29:36Z</time>
      </trkpt>
      <trkpt lat="56.883356905841" lon="14.833577930355">
        <ele>171.2</ele>
        <time>2020-01-07T18:29:43Z</time>
      </trkpt>
      <trkpt lat="56.883520688167" lon="14.833773312444">
        <ele>172.4</ele>
        <time>2020-01-07T18:29:48Z</time>
      </trkpt>
      <trkpt lat="56.883593275421" lon="14.833852689037">
        <ele>173</ele>
        <time>2020-01-07T18:29:50Z</time>
      </trkpt>
      <trkpt lat="56.883767283665" lon="14.834014375888">
        <ele>173.8</ele>
        <time>2020-01-07T18:29:55Z</time>
      </trkpt>
      <trkpt lat="56.883939866986" lon="14.834142702777">
        <ele>172.8</ele>
        <time>2020-01-07T18:30:00Z</time>
      </trkpt>
      <trkpt lat="56.884131644858" lon="14.834292738787">
        <ele>173.6</ele>
        <time>2020-01-07T18:30:06Z</time>
      </trkpt>
      <trkpt lat="56.884312274803" lon="14.834486276858">
        <ele>172.2</ele>
        <time>2020-01-07T18:30:11Z</time>
      </trkpt>
      <trkpt lat="56.884436159285" lon="14.834742846817">
        <ele>173.2</ele>
        <time>2020-01-07T18:30:15Z</time>
      </trkpt>
      <trkpt lat="56.884473374921" lon="14.8348649711">
        <ele>173.4</ele>
        <time>2020-01-07T18:30:17Z</time>
      </trkpt>
      <trkpt lat="56.884570018228" lon="14.835153392279">
        <ele>173.8</ele>
        <time>2020-01-07T18:30:22Z</time>
      </trkpt>
      <trkpt lat="56.884593571367" lon="14.835208712819">
        <ele>174.4</ele>
        <time>2020-01-07T18:30:23Z</time>
      </trkpt>
      <trkpt lat="56.884645874423" lon="14.835330501826">
        <ele>175.6</ele>
        <time>2020-01-07T18:30:25Z</time>
      </trkpt>
      <trkpt lat="56.884761041729" lon="14.835599309359">
        <ele>176.2</ele>
        <time>2020-01-07T18:30:30Z</time>
      </trkpt>
      <trkpt lat="56.884817619554" lon="14.835709698982">
        <ele>177.4</ele>
        <time>2020-01-07T18:30:33Z</time>
      </trkpt>
      <trkpt lat="56.884868413868" lon="14.83575931983">
        <ele>178.8</ele>
        <time>2020-01-07T18:30:35Z</time>
      </trkpt>
      <trkpt lat="56.885075530617" lon="14.835774323431">
        <ele>179.6</ele>
        <time>2020-01-07T18:30:41Z</time>
      </trkpt>
      <trkpt lat="56.885286419221" lon="14.835712716466">
        <ele>179.2</ele>
        <time>2020-01-07T18:30:46Z</time>
      </trkpt>
      <trkpt lat="56.88547593398" lon="14.835603751766">
        <ele>178.8</ele>
        <time>2020-01-07T18:30:51Z</time>
      </trkpt>
      <trkpt lat="56.885672405716" lon="14.835492188677">
        <ele>179</ele>
        <time>2020-01-07T18:30:56Z</time>
      </trkpt>
      <trkpt lat="56.885863010122" lon="14.835367717462">
        <ele>179</ele>
        <time>2020-01-07T18:31:01Z</time>
      </trkpt>
      <trkpt lat="56.885985134405" lon="14.835339470459">
        <ele>179.8</ele>
        <time>2020-01-07T18:31:06Z</time>
      </trkpt>
      <trkpt lat="56.886124441583" lon="14.835337207346">
        <ele>181</ele>
        <time>2020-01-07T18:31:16Z</time>
      </trkpt>
      <trkpt lat="56.886283194769" lon="14.835392863162">
        <ele>181</ele>
        <time>2020-01-07T18:31:30Z</time>
      </trkpt>
      <trkpt lat="56.886314543075" lon="14.835417841224">
        <ele>181.4</ele>
        <time>2020-01-07T18:31:33Z</time>
      </trkpt>
      <trkpt lat="56.886486539663" lon="14.835649265483">
        <ele>181.2</ele>
        <time>2020-01-07T18:31:41Z</time>
      </trkpt>
      <trkpt lat="56.886577231821" lon="14.83584313883">
        <ele>181.4</ele>
        <time>2020-01-07T18:31:44Z</time>
      </trkpt>
      <trkpt lat="56.886624086642" lon="14.835972136271">
        <ele>181.4</ele>
        <time>2020-01-07T18:31:46Z</time>
      </trkpt>
      <trkpt lat="56.886667253427" lon="14.836161148116">
        <ele>182.4</ele>
        <time>2020-01-07T18:31:49Z</time>
      </trkpt>
      <trkpt lat="56.886715533171" lon="14.836383603742">
        <ele>183.4</ele>
        <time>2020-01-07T18:31:52Z</time>
      </trkpt>
      <trkpt lat="56.886761298345" lon="14.836655764035">
        <ele>182.2</ele>
        <time>2020-01-07T18:31:55Z</time>
      </trkpt>
      <trkpt lat="56.886807314976" lon="14.836839160007">
        <ele>181.2</ele>
        <time>2020-01-07T18:31:57Z</time>
      </trkpt>
      <trkpt lat="56.886854337435" lon="14.837010821319">
        <ele>180.2</ele>
        <time>2020-01-07T18:31:59Z</time>
      </trkpt>
      <trkpt lat="56.886877890574" lon="14.837087599523">
        <ele>179.8</ele>
        <time>2020-01-07T18:32:00Z</time>
      </trkpt>
      <trkpt lat="56.886918710427" lon="14.837221877561">
        <ele>179.8</ele>
        <time>2020-01-07T18:32:02Z</time>
      </trkpt>
      <trkpt lat="56.887006133644" lon="14.837553381706">
        <ele>180.8</ele>
        <time>2020-01-07T18:32:07Z</time>
      </trkpt>
      <trkpt lat="56.887059526347" lon="14.837728563416">
        <ele>181.2</ele>
        <time>2020-01-07T18:32:10Z</time>
      </trkpt>
      <trkpt lat="56.887087438074" lon="14.837787404354">
        <ele>181.6</ele>
        <time>2020-01-07T18:32:11Z</time>
      </trkpt>
      <trkpt lat="56.887116020353" lon="14.837849095138">
        <ele>182.4</ele>
        <time>2020-01-07T18:32:12Z</time>
      </trkpt>
      <trkpt lat="56.887147703935" lon="14.837901817289">
        <ele>182.6</ele>
        <time>2020-01-07T18:32:13Z</time>
      </trkpt>
      <trkpt lat="56.887198665887" lon="14.837992090352">
        <ele>183.8</ele>
        <time>2020-01-07T18:32:15Z</time>
      </trkpt>
      <trkpt lat="56.887333865934" lon="14.838289563983">
        <ele>184.6</ele>
        <time>2020-01-07T18:32:20Z</time>
      </trkpt>
      <trkpt lat="56.887382900049" lon="14.838407581135">
        <ele>184.6</ele>
        <time>2020-01-07T18:32:22Z</time>
      </trkpt>
      <trkpt lat="56.887489350179" lon="14.83870471949">
        <ele>184.2</ele>
        <time>2020-01-07T18:32:27Z</time>
      </trkpt>
      <trkpt lat="56.88754626328" lon="14.838880404114">
        <ele>184.4</ele>
        <time>2020-01-07T18:32:30Z</time>
      </trkpt>
      <trkpt lat="56.887583562735" lon="14.838953997196">
        <ele>184.6</ele>
        <time>2020-01-07T18:32:32Z</time>
      </trkpt>
      <trkpt lat="56.887585909667" lon="14.838973107928">
        <ele>184.8</ele>
        <time>2020-01-07T18:32:33Z</time>
      </trkpt>
      <trkpt lat="56.88757979088" lon="14.838981489828">
        <ele>184.8</ele>
        <time>2020-01-07T18:32:34Z</time>
      </trkpt>
      <trkpt lat="56.887506784531" lon="14.839016609989">
        <ele>184.8</ele>
        <time>2020-01-07T18:32:39Z</time>
      </trkpt>
      <trkpt lat="56.887268403295" lon="14.839155498072">
        <ele>184.2</ele>
        <time>2020-01-07T18:32:53Z</time>
      </trkpt>
      <trkpt lat="56.88707184774" lon="14.839189109491">
        <ele>184.8</ele>
        <time>2020-01-07T18:33:05Z</time>
      </trkpt>
      <trkpt lat="56.886986017084" lon="14.839203023445">
        <ele>184</ele>
        <time>2020-01-07T18:33:10Z</time>
      </trkpt>
      <trkpt lat="56.886937569702" lon="14.839222301815">
        <ele>184</ele>
        <time>2020-01-07T18:33:15Z</time>
      </trkpt>
      <trkpt lat="56.886920554445" lon="14.839208723137">
        <ele>184.2</ele>
        <time>2020-01-07T18:33:17Z</time>
      </trkpt>
      <trkpt lat="56.886908065414" lon="14.839207717309">
        <ele>185.4</ele>
        <time>2020-01-07T18:33:19Z</time>
      </trkpt>
      <trkpt lat="56.886874705452" lon="14.839209561327">
        <ele>185.2</ele>
        <time>2020-01-07T18:33:23Z</time>
      </trkpt>
      <trkpt lat="56.88680614151" lon="14.839118198617">
        <ele>184.2</ele>
        <time>2020-01-07T18:33:30Z</time>
      </trkpt>
      <trkpt lat="56.886782420733" lon="14.839090622166">
        <ele>184.2</ele>
        <time>2020-01-07T18:33:33Z</time>
      </trkpt>
      <trkpt lat="56.886756185386" lon="14.839084838655">
        <ele>184.6</ele>
        <time>2020-01-07T18:33:37Z</time>
      </trkpt>
      <trkpt lat="56.886718802112" lon="14.839027757916">
        <ele>184.6</ele>
        <time>2020-01-07T18:33:42Z</time>
      </trkpt>
      <trkpt lat="56.886672534024" lon="14.839027338821">
        <ele>185</ele>
        <time>2020-01-07T18:33:46Z</time>
      </trkpt>
      <trkpt lat="56.886631881809" lon="14.839011245573">
        <ele>185.4</ele>
        <time>2020-01-07T18:33:49Z</time>
      </trkpt>
      <trkpt lat="56.886595923458" lon="14.838922062157">
        <ele>184.8</ele>
        <time>2020-01-07T18:33:55Z</time>
      </trkpt>
      <trkpt lat="56.886569939568" lon="14.838903538158">
        <ele>184.8</ele>
        <time>2020-01-07T18:33:57Z</time>
      </trkpt>
      <trkpt lat="56.886530460819" lon="14.838870094377">
        <ele>185.6</ele>
        <time>2020-01-07T18:34:01Z</time>
      </trkpt>
      <trkpt lat="56.886525683136" lon="14.838903789615">
        <ele>185.8</ele>
        <time>2020-01-07T18:34:03Z</time>
      </trkpt>
      <trkpt lat="56.886494167192" lon="14.838811001982">
        <ele>185</ele>
        <time>2020-01-07T18:34:07Z</time>
      </trkpt>
      <trkpt lat="56.886448318199" lon="14.838673622641">
        <ele>185</ele>
        <time>2020-01-07T18:34:14Z</time>
      </trkpt>
      <trkpt lat="56.886406241061" lon="14.838593910772">
        <ele>185.2</ele>
        <time>2020-01-07T18:34:17Z</time>
      </trkpt>
      <trkpt lat="56.886274980507" lon="14.838348740197">
        <ele>185</ele>
        <time>2020-01-07T18:34:24Z</time>
      </trkpt>
      <trkpt lat="56.886122346108" lon="14.838094349532">
        <ele>185.2</ele>
        <time>2020-01-07T18:34:32Z</time>
      </trkpt>
      <trkpt lat="56.885956971221" lon="14.83791011537">
        <ele>184.4</ele>
        <time>2020-01-07T18:34:39Z</time>
      </trkpt>
      <trkpt lat="56.885836020404" lon="14.837788829277">
        <ele>183.6</ele>
        <time>2020-01-07T18:34:45Z</time>
      </trkpt>
      <trkpt lat="56.885729402636" lon="14.837681876233">
        <ele>182.4</ele>
        <time>2020-01-07T18:34:50Z</time>
      </trkpt>
      <trkpt lat="56.885629658026" lon="14.837607780237">
        <ele>181.4</ele>
        <time>2020-01-07T18:34:54Z</time>
      </trkpt>
      <trkpt lat="56.885443412208" lon="14.837473502199">
        <ele>180.4</ele>
        <time>2020-01-07T18:35:02Z</time>
      </trkpt>
      <trkpt lat="56.885280468072" lon="14.837310222787">
        <ele>180</ele>
        <time>2020-01-07T18:35:09Z</time>
      </trkpt>
      <trkpt lat="56.885258423675" lon="14.837280969956">
        <ele>178.8</ele>
        <time>2020-01-07T18:35:10Z</time>
      </trkpt>
      <trkpt lat="56.885116518108" lon="14.83702414854">
        <ele>179.2</ele>
        <time>2020-01-07T18:35:17Z</time>
      </trkpt>
      <trkpt lat="56.884976037464" lon="14.836806386778">
        <ele>178.4</ele>
        <time>2020-01-07T18:35:23Z</time>
      </trkpt>
      <trkpt lat="56.884836059734" lon="14.836583763514">
        <ele>178.6</ele>
        <time>2020-01-07T18:35:30Z</time>
      </trkpt>
      <trkpt lat="56.884682251869" lon="14.836387794692">
        <ele>178.6</ele>
        <time>2020-01-07T18:35:37Z</time>
      </trkpt>
      <trkpt lat="56.884529282194" lon="14.836189059843">
        <ele>179.2</ele>
        <time>2020-01-07T18:35:44Z</time>
      </trkpt>
      <trkpt lat="56.884483768477" lon="14.836134409855">
        <ele>179.2</ele>
        <time>2020-01-07T18:35:46Z</time>
      </trkpt>
      <trkpt lat="56.884323841825" lon="14.835905416347">
        <ele>178</ele>
        <time>2020-01-07T18:35:53Z</time>
      </trkpt>
      <trkpt lat="56.884299282858" lon="14.835873565127">
        <ele>177.8</ele>
        <time>2020-01-07T18:35:54Z</time>
      </trkpt>
      <trkpt lat="56.884188390321" lon="14.835730066999">
        <ele>176.6</ele>
        <time>2020-01-07T18:35:58Z</time>
      </trkpt>
      <trkpt lat="56.884122927682" lon="14.835656893012">
        <ele>175.4</ele>
        <time>2020-01-07T18:36:01Z</time>
      </trkpt>
      <trkpt lat="56.88404430546" lon="14.835553041271">
        <ele>174</ele>
        <time>2020-01-07T18:36:04Z</time>
      </trkpt>
      <trkpt lat="56.883883540618" lon="14.835348187635">
        <ele>173.4</ele>
        <time>2020-01-07T18:36:10Z</time>
      </trkpt>
      <trkpt lat="56.883812210649" lon="14.835278450227">
        <ele>173</ele>
        <time>2020-01-07T18:36:13Z</time>
      </trkpt>
      <trkpt lat="56.883635771654" lon="14.835131683158">
        <ele>173.4</ele>
        <time>2020-01-07T18:36:20Z</time>
      </trkpt>
      <trkpt lat="56.883500068693" lon="14.835062532483">
        <ele>174</ele>
        <time>2020-01-07T18:36:25Z</time>
      </trkpt>
      <trkpt lat="56.883303596957" lon="14.83494543734">
        <ele>174.2</ele>
        <time>2020-01-07T18:36:32Z</time>
      </trkpt>
      <trkpt lat="56.883128918161" lon="14.834828426016">
        <ele>173.8</ele>
        <time>2020-01-07T18:36:39Z</time>
      </trkpt>
      <trkpt lat="56.882989946259" lon="14.834571856057">
        <ele>173.6</ele>
        <time>2020-01-07T18:36:47Z</time>
      </trkpt>
      <trkpt lat="56.882976870495" lon="14.8344710218">
        <ele>173.4</ele>
        <time>2020-01-07T18:36:49Z</time>
      </trkpt>
      <trkpt lat="56.883056498545" lon="14.83416256788">
        <ele>174</ele>
        <time>2020-01-07T18:36:56Z</time>
      </trkpt>
      <trkpt lat="56.883152555119" lon="14.833968526895">
        <ele>173</ele>
        <time>2020-01-07T18:37:01Z</time>
      </trkpt>
      <trkpt lat="56.883295466514" lon="14.833661246441">
        <ele>172.6</ele>
        <time>2020-01-07T18:37:10Z</time>
      </trkpt>
      <trkpt lat="56.883468971844" lon="14.833781275249">
        <ele>173</ele>
        <time>2020-01-07T18:37:15Z</time>
      </trkpt>
      <trkpt lat="56.883650859074" lon="14.833961067004">
        <ele>173.4</ele>
        <time>2020-01-07T18:37:21Z</time>
      </trkpt>
      <trkpt lat="56.883829812639" lon="14.834085119124">
        <ele>173.6</ele>
        <time>2020-01-07T18:37:26Z</time>
      </trkpt>
      <trkpt lat="56.883886558102" lon="14.834147312822">
        <ele>174.4</ele>
        <time>2020-01-07T18:37:28Z</time>
      </trkpt>
      <trkpt lat="56.884066266038" lon="14.834276310263">
        <ele>174.2</ele>
        <time>2020-01-07T18:37:34Z</time>
      </trkpt>
      <trkpt lat="56.884216888781" lon="14.834432548879">
        <ele>173.2</ele>
        <time>2020-01-07T18:37:38Z</time>
      </trkpt>
      <trkpt lat="56.884376731614" lon="14.834707810475">
        <ele>173.4</ele>
        <time>2020-01-07T18:37:43Z</time>
      </trkpt>
      <trkpt lat="56.884450659972" lon="14.834873017724">
        <ele>174.4</ele>
        <time>2020-01-07T18:37:46Z</time>
      </trkpt>
      <trkpt lat="56.884540681578" lon="14.835132186072">
        <ele>175</ele>
        <time>2020-01-07T18:37:50Z</time>
      </trkpt>
      <trkpt lat="56.884596337394" lon="14.835287083584">
        <ele>175.6</ele>
        <time>2020-01-07T18:37:52Z</time>
      </trkpt>
      <trkpt lat="56.8846947409" lon="14.835572571098">
        <ele>177</ele>
        <time>2020-01-07T18:37:56Z</time>
      </trkpt>
      <trkpt lat="56.884727765586" lon="14.835654965175">
        <ele>177.8</ele>
        <time>2020-01-07T18:37:58Z</time>
      </trkpt>
      <trkpt lat="56.884749642345" lon="14.835685726748">
        <ele>178.2</ele>
        <time>2020-01-07T18:37:59Z</time>
      </trkpt>
      <trkpt lat="56.884817871011" lon="14.835735934329">
        <ele>179.4</ele>
        <time>2020-01-07T18:38:01Z</time>
      </trkpt>
      <trkpt lat="56.88489003917" lon="14.835742639849">
        <ele>180.6</ele>
        <time>2020-01-07T18:38:03Z</time>
      </trkpt>
      <trkpt lat="56.885041416284" lon="14.835738029804">
        <ele>181.6</ele>
        <time>2020-01-07T18:38:07Z</time>
      </trkpt>
      <trkpt lat="56.885252053431" lon="14.835686816395">
        <ele>181.2</ele>
        <time>2020-01-07T18:38:12Z</time>
      </trkpt>
      <trkpt lat="56.885442238742" lon="14.835612301304">
        <ele>181.2</ele>
        <time>2020-01-07T18:38:16Z</time>
      </trkpt>
      <trkpt lat="56.885485740803" lon="14.835581120636">
        <ele>181.2</ele>
        <time>2020-01-07T18:38:17Z</time>
      </trkpt>
      <trkpt lat="56.885651534785" lon="14.835468300262">
        <ele>180.8</ele>
        <time>2020-01-07T18:38:21Z</time>
      </trkpt>
      <trkpt lat="56.885694450113" lon="14.835439717983">
        <ele>180.2</ele>
        <time>2020-01-07T18:38:22Z</time>
      </trkpt>
      <trkpt lat="56.885826381219" lon="14.835370902584">
        <ele>179.2</ele>
        <time>2020-01-07T18:38:25Z</time>
      </trkpt>
      <trkpt lat="56.885885138338" lon="14.83535615044">
        <ele>181</ele>
        <time>2020-01-07T18:38:27Z</time>
      </trkpt>
      <trkpt lat="56.88590592545" lon="14.835355815164">
        <ele>182.8</ele>
        <time>2020-01-07T18:38:28Z</time>
      </trkpt>
      <trkpt lat="56.886060236229" lon="14.835360257571">
        <ele>183</ele>
        <time>2020-01-07T18:38:39Z</time>
      </trkpt>
      <trkpt lat="56.886114718579" lon="14.835373500973">
        <ele>183</ele>
        <time>2020-01-07T18:38:43Z</time>
      </trkpt>
      <trkpt lat="56.886240111803" lon="14.835363777969">
        <ele>183.4</ele>
        <time>2020-01-07T18:38:54Z</time>
      </trkpt>
      <trkpt lat="56.886325188088" lon="14.835432593368">
        <ele>183.8</ele>
        <time>2020-01-07T18:39:01Z</time>
      </trkpt>
      <trkpt lat="56.886359637697" lon="14.835483806777">
        <ele>184</ele>
        <time>2020-01-07T18:39:03Z</time>
      </trkpt>
      <trkpt lat="56.886385789225" lon="14.83552881758">
        <ele>184</ele>
        <time>2020-01-07T18:39:04Z</time>
      </trkpt>
      <trkpt lat="56.886518055607" lon="14.83579620019">
        <ele>183.4</ele>
        <time>2020-01-07T18:39:08Z</time>
      </trkpt>
      <trkpt lat="56.886594163259" lon="14.836002646387">
        <ele>183.8</ele>
        <time>2020-01-07T18:39:11Z</time>
      </trkpt>
      <trkpt lat="56.886617381122" lon="14.836145557782">
        <ele>184.8</ele>
        <time>2020-01-07T18:39:13Z</time>
      </trkpt>
      <trkpt lat="56.886630875981" lon="14.836231556076">
        <ele>185.2</ele>
        <time>2020-01-07T18:39:14Z</time>
      </trkpt>
      <trkpt lat="56.886681837933" lon="14.836547972801">
        <ele>185.2</ele>
        <time>2020-01-07T18:39:17Z</time>
      </trkpt>
      <trkpt lat="56.886741852337" lon="14.836846116984">
        <ele>183.8</ele>
        <time>2020-01-07T18:39:20Z</time>
      </trkpt>
      <trkpt lat="56.886791557004" lon="14.837084162944">
        <ele>183</ele>
        <time>2020-01-07T18:39:23Z</time>
      </trkpt>
      <trkpt lat="56.886829443192" lon="14.837223973036">
        <ele>182.8</ele>
        <time>2020-01-07T18:39:25Z</time>
      </trkpt>
      <trkpt lat="56.886924577757" lon="14.83757064842">
        <ele>183.6</ele>
        <time>2020-01-07T18:39:30Z</time>
      </trkpt>
      <trkpt lat="56.886944023765" lon="14.83763686543">
        <ele>184</ele>
        <time>2020-01-07T18:39:31Z</time>
      </trkpt>
      <trkpt lat="56.887019628503" lon="14.837851777346">
        <ele>185.2</ele>
        <time>2020-01-07T18:39:35Z</time>
      </trkpt>
      <trkpt lat="56.887174526015" lon="14.838131900444">
        <ele>186.4</ele>
        <time>2020-01-07T18:39:41Z</time>
      </trkpt>
      <trkpt lat="56.887318694695" lon="14.838406407669">
        <ele>186.8</ele>
        <time>2020-01-07T18:39:46Z</time>
      </trkpt>
      <trkpt lat="56.887440232245" lon="14.838679154695">
        <ele>186.8</ele>
        <time>2020-01-07T18:39:51Z</time>
      </trkpt>
      <trkpt lat="56.887538803389" lon="14.838943938916">
        <ele>186.6</ele>
        <time>2020-01-07T18:39:56Z</time>
      </trkpt>
      <trkpt lat="56.887317940324" lon="14.839136806435">
        <ele>187</ele>
        <time>2020-01-07T18:40:13Z</time>
      </trkpt>
      <trkpt lat="56.88722691289" lon="14.839176704279">
        <ele>187</ele>
        <time>2020-01-07T18:40:19Z</time>
      </trkpt>
      <trkpt lat="56.887039493606" lon="14.839242166918">
        <ele>186.8</ele>
        <time>2020-01-07T18:40:32Z</time>
      </trkpt>
      <trkpt lat="56.887003870531" lon="14.839263205487">
        <ele>186.4</ele>
        <time>2020-01-07T18:40:35Z</time>
      </trkpt>
      <trkpt lat="56.886958356814" lon="14.839244932945">
        <ele>186.4</ele>
        <time>2020-01-07T18:40:40Z</time>
      </trkpt>
      <trkpt lat="56.88693187001" lon="14.839235796674">
        <ele>186.6</ele>
        <time>2020-01-07T18:40:42Z</time>
      </trkpt>
      <trkpt lat="56.886914435658" lon="14.839207382033">
        <ele>186.8</ele>
        <time>2020-01-07T18:40:45Z</time>
      </trkpt>
      <trkpt lat="56.886901192256" lon="14.839193300441">
        <ele>186.8</ele>
        <time>2020-01-07T18:40:47Z</time>
      </trkpt>
      <trkpt lat="56.886879818411" lon="14.839153737873">
        <ele>186.6</ele>
        <time>2020-01-07T18:40:51Z</time>
      </trkpt>
      <trkpt lat="56.886861629688" lon="14.839134459503">
        <ele>186.6</ele>
        <time>2020-01-07T18:40:55Z</time>
      </trkpt>
      <trkpt lat="56.886829946106" lon="14.839094226383">
        <ele>186.8</ele>
        <time>2020-01-07T18:40:59Z</time>
      </trkpt>
      <trkpt lat="56.886810081003" lon="14.839071092339">
        <ele>186.6</ele>
        <time>2020-01-07T18:41:02Z</time>
      </trkpt>
      <trkpt lat="56.886797843429" lon="14.839056088738">
        <ele>186.8</ele>
        <time>2020-01-07T18:41:04Z</time>
      </trkpt>
      <trkpt lat="56.886775882851" lon="14.839034631074">
        <ele>186.8</ele>
        <time>2020-01-07T18:41:06Z</time>
      </trkpt>
      <trkpt lat="56.886763310001" lon="14.83902658445">
        <ele>186.8</ele>
        <time>2020-01-07T18:41:08Z</time>
      </trkpt>
      <trkpt lat="56.886748809314" lon="14.839026752088">
        <ele>186.8</ele>
        <time>2020-01-07T18:41:10Z</time>
      </trkpt>
      <trkpt lat="56.886728441297" lon="14.839059609136">
        <ele>186.8</ele>
        <time>2020-01-07T18:41:21Z</time>
      </trkpt>
      <trkpt lat="56.886689716919" lon="14.839024153699">
        <ele>186.8</ele>
        <time>2020-01-07T18:41:35Z</time>
      </trkpt>
      <trkpt lat="56.886674461861" lon="14.839007641356">
        <ele>187</ele>
        <time>2020-01-07T18:41:37Z</time>
      </trkpt>
      <trkpt lat="56.886600701141" lon="14.838911081868">
        <ele>187.2</ele>
        <time>2020-01-07T18:41:44Z</time>
      </trkpt>
      <trkpt lat="56.886574130518" lon="14.838886103806">
        <ele>187.2</ele>
        <time>2020-01-07T18:41:49Z</time>
      </trkpt>
      <trkpt lat="56.886571196853" lon="14.838882499589">
        <ele>187.4</ele>
        <time>2020-01-07T18:41:51Z</time>
      </trkpt>
      <trkpt lat="56.886515121942" lon="14.838777306744">
        <ele>187.6</ele>
        <time>2020-01-07T18:42:07Z</time>
      </trkpt>
      <trkpt lat="56.886378748429" lon="14.838539093146">
        <ele>187.6</ele>
        <time>2020-01-07T18:42:19Z</time>
      </trkpt>
      <trkpt lat="56.886252433196" lon="14.83828981544">
        <ele>187.8</ele>
        <time>2020-01-07T18:42:26Z</time>
      </trkpt>
      <trkpt lat="56.886110527629" lon="14.838074065334">
        <ele>187.4</ele>
        <time>2020-01-07T18:42:34Z</time>
      </trkpt>
      <trkpt lat="56.886056464374" lon="14.838008686514">
        <ele>185.6</ele>
        <time>2020-01-07T18:42:37Z</time>
      </trkpt>
      <trkpt lat="56.885949762787" lon="14.837893100113">
        <ele>183.8</ele>
        <time>2020-01-07T18:42:42Z</time>
      </trkpt>
      <trkpt lat="56.885839876078" lon="14.83776762307">
        <ele>182.8</ele>
        <time>2020-01-07T18:42:47Z</time>
      </trkpt>
      <trkpt lat="56.88566285035" lon="14.837606103857">
        <ele>182</ele>
        <time>2020-01-07T18:42:55Z</time>
      </trkpt>
      <trkpt lat="56.885597387711" lon="14.837552543516">
        <ele>181.6</ele>
        <time>2020-01-07T18:42:58Z</time>
      </trkpt>
      <trkpt lat="56.885426983684" lon="14.837405105895">
        <ele>180.6</ele>
        <time>2020-01-07T18:43:04Z</time>
      </trkpt>
      <trkpt lat="56.885387253478" lon="14.837368979906">
        <ele>180.2</ele>
        <time>2020-01-07T18:43:05Z</time>
      </trkpt>
      <trkpt lat="56.885228165016" lon="14.837168484858">
        <ele>179.4</ele>
        <time>2020-01-07T18:43:11Z</time>
      </trkpt>
      <trkpt lat="56.885147614957" lon="14.83705180881">
        <ele>179.2</ele>
        <time>2020-01-07T18:43:15Z</time>
      </trkpt>
      <trkpt lat="56.885004284467" lon="14.836806135321">
        <ele>178.4</ele>
        <time>2020-01-07T18:43:22Z</time>
      </trkpt>
      <trkpt lat="56.884853997" lon="14.836612932526">
        <ele>178.6</ele>
        <time>2020-01-07T18:43:28Z</time>
      </trkpt>
      <trkpt lat="56.884707062293" lon="14.836403468845">
        <ele>178.2</ele>
        <time>2020-01-07T18:43:36Z</time>
      </trkpt>
      <trkpt lat="56.88467965348" lon="14.836363990096">
        <ele>177.8</ele>
        <time>2020-01-07T18:43:37Z</time>
      </trkpt>
      <trkpt lat="56.884639504179" lon="14.836317470551">
        <ele>179</ele>
        <time>2020-01-07T18:43:39Z</time>
      </trkpt>
      <trkpt lat="56.884485528676" lon="14.836109934707">
        <ele>178.2</ele>
        <time>2020-01-07T18:43:46Z</time>
      </trkpt>
      <trkpt lat="56.884373378854" lon="14.835971800995">
        <ele>177.8</ele>
        <time>2020-01-07T18:43:51Z</time>
      </trkpt>
      <trkpt lat="56.884259133557" lon="14.835831068894">
        <ele>176.8</ele>
        <time>2020-01-07T18:43:56Z</time>
      </trkpt>
      <trkpt lat="56.884185875751" lon="14.835743897134">
        <ele>175.2</ele>
        <time>2020-01-07T18:43:59Z</time>
      </trkpt>
      <trkpt lat="56.884073390653" lon="14.835610792562">
        <ele>174</ele>
        <time>2020-01-07T18:44:03Z</time>
      </trkpt>
      <trkpt lat="56.883907764309" lon="14.835406106564">
        <ele>173.2</ele>
        <time>2020-01-07T18:44:10Z</time>
      </trkpt>
      <trkpt lat="56.883885384636" lon="14.835378111018">
        <ele>173</ele>
        <time>2020-01-07T18:44:11Z</time>
      </trkpt>
      <trkpt lat="56.883720596482" lon="14.835223297325">
        <ele>172.6</ele>
        <time>2020-01-07T18:44:18Z</time>
      </trkpt>
      <trkpt lat="56.883536278501" lon="14.835092036771">
        <ele>173.4</ele>
        <time>2020-01-07T18:44:25Z</time>
      </trkpt>
      <trkpt lat="56.883349529769" lon="14.834966727366">
        <ele>173.6</ele>
        <time>2020-01-07T18:44:31Z</time>
      </trkpt>
      <trkpt lat="56.883173090774" lon="14.834857678847">
        <ele>173</ele>
        <time>2020-01-07T18:44:37Z</time>
      </trkpt>
      <trkpt lat="56.883006877697" lon="14.834658860179">
        <ele>173</ele>
        <time>2020-01-07T18:44:44Z</time>
      </trkpt>
      <trkpt lat="56.882977876323" lon="14.834312855347">
        <ele>173.2</ele>
        <time>2020-01-07T18:44:51Z</time>
      </trkpt>
      <trkpt lat="56.883093295086" lon="14.834060476338">
        <ele>173</ele>
        <time>2020-01-07T18:44:57Z</time>
      </trkpt>
      <trkpt lat="56.883219358862" lon="14.833742718509">
        <ele>171.8</ele>
        <time>2020-01-07T18:45:06Z</time>
      </trkpt>
      <trkpt lat="56.883254898118" lon="14.833695863688">
        <ele>172.8</ele>
        <time>2020-01-07T18:45:08Z</time>
      </trkpt>
      <trkpt lat="56.883274176488" lon="14.833704832321">
        <ele>173.6</ele>
        <time>2020-01-07T18:45:09Z</time>
      </trkpt>
      <trkpt lat="56.88335028414" lon="14.833799883067">
        <ele>175.4</ele>
        <time>2020-01-07T18:45:12Z</time>
      </trkpt>
      <trkpt lat="56.883526890773" lon="14.833965760868">
        <ele>175.4</ele>
        <time>2020-01-07T18:45:17Z</time>
      </trkpt>
      <trkpt lat="56.883614397809" lon="14.834009430567">
        <ele>175.6</ele>
        <time>2020-01-07T18:45:19Z</time>
      </trkpt>
      <trkpt lat="56.883801062722" lon="14.834134404696">
        <ele>174.8</ele>
        <time>2020-01-07T18:45:24Z</time>
      </trkpt>
      <trkpt lat="56.883879098211" lon="14.834218978067">
        <ele>175.2</ele>
        <time>2020-01-07T18:45:27Z</time>
      </trkpt>
      <trkpt lat="56.884087220788" lon="14.834363398204">
        <ele>174.8</ele>
        <time>2020-01-07T18:45:33Z</time>
      </trkpt>
      <trkpt lat="56.884164250449" lon="14.834441601331">
        <ele>174.4</ele>
        <time>2020-01-07T18:45:35Z</time>
      </trkpt>
      <trkpt lat="56.884301881247" lon="14.834658608722">
        <ele>174</ele>
        <time>2020-01-07T18:45:39Z</time>
      </trkpt>
      <trkpt lat="56.884378827089" lon="14.834821888134">
        <ele>174.4</ele>
        <time>2020-01-07T18:45:42Z</time>
      </trkpt>
      <trkpt lat="56.884491815101" lon="14.835111231322">
        <ele>175</ele>
        <time>2020-01-07T18:45:47Z</time>
      </trkpt>
      <trkpt lat="56.884509333272" lon="14.835167054776">
        <ele>175.4</ele>
        <time>2020-01-07T18:45:48Z</time>
      </trkpt>
      <trkpt lat="56.884598097593" lon="14.835411722437">
        <ele>176.8</ele>
        <time>2020-01-07T18:45:52Z</time>
      </trkpt>
      <trkpt lat="56.884675127254" lon="14.8355690507">
        <ele>178</ele>
        <time>2020-01-07T18:45:55Z</time>
      </trkpt>
      <trkpt lat="56.884793982596" lon="14.83572746861">
        <ele>179.2</ele>
        <time>2020-01-07T18:46:00Z</time>
      </trkpt>
      <trkpt lat="56.884975869826" lon="14.835736353424">
        <ele>178.4</ele>
        <time>2020-01-07T18:46:05Z</time>
      </trkpt>
      <trkpt lat="56.885184579136" lon="14.835701065625">
        <ele>178.4</ele>
        <time>2020-01-07T18:46:10Z</time>
      </trkpt>
      <trkpt lat="56.885259094227" lon="14.835661335419">
        <ele>177.8</ele>
        <time>2020-01-07T18:46:12Z</time>
      </trkpt>
      <trkpt lat="56.885323802495" lon="14.835622862498">
        <ele>176.8</ele>
        <time>2020-01-07T18:46:14Z</time>
      </trkpt>
      <trkpt lat="56.885514742177" lon="14.835505515898">
        <ele>176.4</ele>
        <time>2020-01-07T18:46:19Z</time>
      </trkpt>
      <trkpt lat="56.885650612776" lon="14.835445166218">
        <ele>175.8</ele>
        <time>2020-01-07T18:46:22Z</time>
      </trkpt>
      <trkpt lat="56.88585060491" lon="14.835384565081">
        <ele>177.2</ele>
        <time>2020-01-07T18:46:28Z</time>
      </trkpt>
      <trkpt lat="56.885912966246" lon="14.835368555652">
        <ele>178.2</ele>
        <time>2020-01-07T18:46:30Z</time>
      </trkpt>
      <trkpt lat="56.885970382261" lon="14.835336704432">
        <ele>179.4</ele>
        <time>2020-01-07T18:46:34Z</time>
      </trkpt>
      <trkpt lat="56.88613391313" lon="14.835328909265">
        <ele>179.6</ele>
        <time>2020-01-07T18:46:45Z</time>
      </trkpt>
      <trkpt lat="56.886216810121" lon="14.835339302821">
        <ele>179.6</ele>
        <time>2020-01-07T18:46:51Z</time>
      </trkpt>
      <trkpt lat="56.886262575295" lon="14.835371154041">
        <ele>179.8</ele>
        <time>2020-01-07T18:46:55Z</time>
      </trkpt>
      <trkpt lat="56.886294677972" lon="14.835398479035">
        <ele>179.8</ele>
        <time>2020-01-07T18:46:57Z</time>
      </trkpt>
      <trkpt lat="56.886327702658" lon="14.835425468753">
        <ele>181.4</ele>
        <time>2020-01-07T18:46:59Z</time>
      </trkpt>
      <trkpt lat="56.886392410926" lon="14.83551624473">
        <ele>179</ele>
        <time>2020-01-07T18:47:03Z</time>
      </trkpt>
      <trkpt lat="56.886418394816" lon="14.835572906374">
        <ele>180.6</ele>
        <time>2020-01-07T18:47:04Z</time>
      </trkpt>
      <trkpt lat="56.886545967334" lon="14.835865602322">
        <ele>181.2</ele>
        <time>2020-01-07T18:47:08Z</time>
      </trkpt>
      <trkpt lat="56.886585110807" lon="14.835989486804">
        <ele>182</ele>
        <time>2020-01-07T18:47:10Z</time>
      </trkpt>
      <trkpt lat="56.886641437175" lon="14.836301544941">
        <ele>182.8</ele>
        <time>2020-01-07T18:47:14Z</time>
      </trkpt>
      <trkpt lat="56.886696170982" lon="14.83662768467">
        <ele>182</ele>
        <time>2020-01-07T18:47:17Z</time>
      </trkpt>
      <trkpt lat="56.886765237838" lon="14.836917195496">
        <ele>180.8</ele>
        <time>2020-01-07T18:47:20Z</time>
      </trkpt>
      <trkpt lat="56.886850817037" lon="14.837230091823">
        <ele>179.6</ele>
        <time>2020-01-07T18:47:24Z</time>
      </trkpt>
      <trkpt lat="56.886920051531" lon="14.837594033921">
        <ele>180.6</ele>
        <time>2020-01-07T18:47:29Z</time>
      </trkpt>
      <trkpt lat="56.886959195004" lon="14.837718840412">
        <ele>181.2</ele>
        <time>2020-01-07T18:47:31Z</time>
      </trkpt>
      <trkpt lat="56.886979730659" lon="14.837778687178">
        <ele>181.6</ele>
        <time>2020-01-07T18:47:32Z</time>
      </trkpt>
      <trkpt lat="56.887023065082" lon="14.837882874195">
        <ele>181.8</ele>
        <time>2020-01-07T18:47:34Z</time>
      </trkpt>
      <trkpt lat="56.887109482471" lon="14.838026875237">
        <ele>183.2</ele>
        <time>2020-01-07T18:47:37Z</time>
      </trkpt>
      <trkpt lat="56.887244263423" lon="14.838267435767">
        <ele>184</ele>
        <time>2020-01-07T18:47:41Z</time>
      </trkpt>
      <trkpt lat="56.887376026891" lon="14.838585025958">
        <ele>183.8</ele>
        <time>2020-01-07T18:47:46Z</time>
      </trkpt>
      <trkpt lat="56.88742472573" lon="14.838714274856">
        <ele>183.6</ele>
        <time>2020-01-07T18:47:48Z</time>
      </trkpt>
      <trkpt lat="56.887510556386" lon="14.838947124038">
        <ele>183.4</ele>
        <time>2020-01-07T18:47:52Z</time>
      </trkpt>
      <trkpt lat="56.887516507535" lon="14.839002947492">
        <ele>183.8</ele>
        <time>2020-01-07T18:47:54Z</time>
      </trkpt>
      <trkpt lat="56.887422043522" lon="14.839081737352">
        <ele>184.6</ele>
        <time>2020-01-07T18:48:02Z</time>
      </trkpt>
      <trkpt lat="56.887248622011" lon="14.839172932424">
        <ele>185.2</ele>
        <time>2020-01-07T18:48:15Z</time>
      </trkpt>
      <trkpt lat="56.887132616515" lon="14.839201514703">
        <ele>185</ele>
        <time>2020-01-07T18:48:21Z</time>
      </trkpt>
      <trkpt lat="56.886947460344" lon="14.839274353414">
        <ele>184.8</ele>
        <time>2020-01-07T18:48:34Z</time>
      </trkpt>
      <trkpt lat="56.886919464798" lon="14.83926630679">
        <ele>184.8</ele>
        <time>2020-01-07T18:48:38Z</time>
      </trkpt>
      <trkpt lat="56.886914100382" lon="14.839239233253">
        <ele>184.8</ele>
        <time>2020-01-07T18:48:40Z</time>
      </trkpt>
      <trkpt lat="56.886898593867" lon="14.839200760332">
        <ele>184.4</ele>
        <time>2020-01-07T18:48:44Z</time>
      </trkpt>
      <trkpt lat="56.886748054943" lon="14.839016945265">
        <ele>185.2</ele>
        <time>2020-01-07T18:49:09Z</time>
      </trkpt>
      <trkpt lat="56.886744869821" lon="14.839003282768">
        <ele>185.2</ele>
        <time>2020-01-07T18:49:11Z</time>
      </trkpt>
      <trkpt lat="56.88666867835" lon="14.838951314988">
        <ele>185.2</ele>
        <time>2020-01-07T18:49:50Z</time>
      </trkpt>
      <trkpt lat="56.886619476597" lon="14.838885517073">
        <ele>185.4</ele>
        <time>2020-01-07T18:49:54Z</time>
      </trkpt>
      <trkpt lat="56.886593744164" lon="14.838862215391">
        <ele>185.6</ele>
        <time>2020-01-07T18:49:56Z</time>
      </trkpt>
      <trkpt lat="56.886581003676" lon="14.838853162939">
        <ele>185.8</ele>
        <time>2020-01-07T18:49:57Z</time>
      </trkpt>
      <trkpt lat="56.886567676455" lon="14.838848804351">
        <ele>186.8</ele>
        <time>2020-01-07T18:49:58Z</time>
      </trkpt>
      <trkpt lat="56.886540267642" lon="14.838844361944">
        <ele>188</ele>
        <time>2020-01-07T18:50:00Z</time>
      </trkpt>
      <trkpt lat="56.886515708675" lon="14.83880530229">
        <ele>187.4</ele>
        <time>2020-01-07T18:50:03Z</time>
      </trkpt>
      <trkpt lat="56.886507410594" lon="14.838789544318">
        <ele>186.6</ele>
        <time>2020-01-07T18:50:04Z</time>
      </trkpt>
      <trkpt lat="56.886501291807" lon="14.838774959812">
        <ele>186</ele>
        <time>2020-01-07T18:50:05Z</time>
      </trkpt>
      <trkpt lat="56.886467428931" lon="14.838737576538">
        <ele>185.6</ele>
        <time>2020-01-07T18:50:08Z</time>
      </trkpt>
      <trkpt lat="56.886428201639" lon="14.838701450549">
        <ele>186.2</ele>
        <time>2020-01-07T18:50:11Z</time>
      </trkpt>
      <trkpt lat="56.886395679867" lon="14.838653506081">
        <ele>186</ele>
        <time>2020-01-07T18:50:16Z</time>
      </trkpt>
      <trkpt lat="56.886276153973" lon="14.838407832592">
        <ele>185.6</ele>
        <time>2020-01-07T18:50:25Z</time>
      </trkpt>
      <trkpt lat="56.886259473992" lon="14.838381513426">
        <ele>185.6</ele>
        <time>2020-01-07T18:50:26Z</time>
      </trkpt>
      <trkpt lat="56.886129470723" lon="14.838130391702">
        <ele>186</ele>
        <time>2020-01-07T18:50:35Z</time>
      </trkpt>
      <trkpt lat="56.88597130427" lon="14.837947079549">
        <ele>185.6</ele>
        <time>2020-01-07T18:50:43Z</time>
      </trkpt>
      <trkpt lat="56.88584892853" lon="14.837814729348">
        <ele>184.6</ele>
        <time>2020-01-07T18:50:49Z</time>
      </trkpt>
      <trkpt lat="56.885748932463" lon="14.837713475996">
        <ele>183.4</ele>
        <time>2020-01-07T18:50:54Z</time>
      </trkpt>
      <trkpt lat="56.885669304413" lon="14.837638206534">
        <ele>182.4</ele>
        <time>2020-01-07T18:50:58Z</time>
      </trkpt>
      <trkpt lat="56.885486159898" lon="14.83749185856">
        <ele>181.4</ele>
        <time>2020-01-07T18:51:06Z</time>
      </trkpt>
      <trkpt lat="56.885464534596" lon="14.837470400896">
        <ele>181.2</ele>
        <time>2020-01-07T18:51:07Z</time>
      </trkpt>
      <trkpt lat="56.885297483329" lon="14.837320113429">
        <ele>181</ele>
        <time>2020-01-07T18:51:13Z</time>
      </trkpt>
      <trkpt lat="56.885150883898" lon="14.837109308644">
        <ele>181.4</ele>
        <time>2020-01-07T18:51:20Z</time>
      </trkpt>
      <trkpt lat="56.88502079681" lon="14.836851732857">
        <ele>180.6</ele>
        <time>2020-01-07T18:51:28Z</time>
      </trkpt>
      <trkpt lat="56.884871766628" lon="14.836612513431">
        <ele>180.4</ele>
        <time>2020-01-07T18:51:35Z</time>
      </trkpt>
      <trkpt lat="56.884714522184" lon="14.836411096374">
        <ele>180.4</ele>
        <time>2020-01-07T18:51:43Z</time>
      </trkpt>
      <trkpt lat="56.884688370656" lon="14.836377401136">
        <ele>180.2</ele>
        <time>2020-01-07T18:51:44Z</time>
      </trkpt>
      <trkpt lat="56.88452626471" lon="14.836166344894">
        <ele>180.6</ele>
        <time>2020-01-07T18:51:51Z</time>
      </trkpt>
      <trkpt lat="56.8843678468" lon="14.835946571476">
        <ele>180.4</ele>
        <time>2020-01-07T18:51:59Z</time>
      </trkpt>
      <trkpt lat="56.884243207947" lon="14.835756889079">
        <ele>179</ele>
        <time>2020-01-07T18:52:05Z</time>
      </trkpt>
      <trkpt lat="56.884161568241" lon="14.835650774225">
        <ele>177.6</ele>
        <time>2020-01-07T18:52:09Z</time>
      </trkpt>
      <trkpt lat="56.884067188047" lon="14.835538289127">
        <ele>176.4</ele>
        <time>2020-01-07T18:52:13Z</time>
      </trkpt>
      <trkpt lat="56.883897706029" lon="14.835379955036">
        <ele>175.8</ele>
        <time>2020-01-07T18:52:20Z</time>
      </trkpt>
      <trkpt lat="56.883757728299" lon="14.835183818576">
        <ele>175.4</ele>
        <time>2020-01-07T18:52:27Z</time>
      </trkpt>
      <trkpt lat="56.883590341756" lon="14.835053228574">
        <ele>175.8</ele>
        <time>2020-01-07T18:52:35Z</time>
      </trkpt>
      <trkpt lat="56.883399066798" lon="14.834950550299">
        <ele>176.2</ele>
        <time>2020-01-07T18:52:42Z</time>
      </trkpt>
      <trkpt lat="56.883284737682" lon="14.834886847859">
        <ele>176.4</ele>
        <time>2020-01-07T18:52:46Z</time>
      </trkpt>
      <trkpt lat="56.883112321999" lon="14.834748965604">
        <ele>176.6</ele>
        <time>2020-01-07T18:52:53Z</time>
      </trkpt>
      <trkpt lat="56.882972092812" lon="14.83450287302">
        <ele>176.2</ele>
        <time>2020-01-07T18:53:01Z</time>
      </trkpt>
      <trkpt lat="56.88301919909" lon="14.834168770486">
        <ele>176.2</ele>
        <time>2020-01-07T18:53:09Z</time>
      </trkpt>
      <trkpt lat="56.883135204586" lon="14.833994175509">
        <ele>175.2</ele>
        <time>2020-01-07T18:53:15Z</time>
      </trkpt>
      <trkpt lat="56.883238637232" lon="14.833705419054">
        <ele>174.6</ele>
        <time>2020-01-07T18:53:23Z</time>
      </trkpt>
      <trkpt lat="56.883276355782" lon="14.833679267526">
        <ele>174.6</ele>
        <time>2020-01-07T18:53:25Z</time>
      </trkpt>
      <trkpt lat="56.883479113943" lon="14.83387255414">
        <ele>175.2</ele>
        <time>2020-01-07T18:53:31Z</time>
      </trkpt>
      <trkpt lat="56.883629820505" lon="14.834002557409">
        <ele>176.4</ele>
        <time>2020-01-07T18:53:35Z</time>
      </trkpt>
      <trkpt lat="56.883824951137" lon="14.834100709458">
        <ele>176.6</ele>
        <time>2020-01-07T18:53:40Z</time>
      </trkpt>
      <trkpt lat="56.883898711857" lon="14.834138930922">
        <ele>176.4</ele>
        <time>2020-01-07T18:53:42Z</time>
      </trkpt>
      <trkpt lat="56.884081772553" lon="14.834236831514">
        <ele>175.6</ele>
        <time>2020-01-07T18:53:47Z</time>
      </trkpt>
      <trkpt lat="56.884120999845" lon="14.834269353286">
        <ele>175.4</ele>
        <time>2020-01-07T18:53:48Z</time>
      </trkpt>
      <trkpt lat="56.884280591221" lon="14.834502705382">
        <ele>175.4</ele>
        <time>2020-01-07T18:53:53Z</time>
      </trkpt>
      <trkpt lat="56.884380084374" lon="14.834810237293">
        <ele>175.6</ele>
        <time>2020-01-07T18:53:58Z</time>
      </trkpt>
      <trkpt lat="56.884461388804" lon="14.834984999908">
        <ele>176.6</ele>
        <time>2020-01-07T18:54:01Z</time>
      </trkpt>
      <trkpt lat="56.884581082336" lon="14.835309714714">
        <ele>177.4</ele>
        <time>2020-01-07T18:54:06Z</time>
      </trkpt>
      <trkpt lat="56.884609664615" lon="14.835379452122">
        <ele>177.8</ele>
        <time>2020-01-07T18:54:07Z</time>
      </trkpt>
      <trkpt lat="56.884677306548" lon="14.835552203081">
        <ele>179</ele>
        <time>2020-01-07T18:54:10Z</time>
      </trkpt>
      <trkpt lat="56.884730112518" lon="14.835665526369">
        <ele>180.4</ele>
        <time>2020-01-07T18:54:13Z</time>
      </trkpt>
      <trkpt lat="56.884780906832" lon="14.8357283068">
        <ele>181.8</ele>
        <time>2020-01-07T18:54:15Z</time>
      </trkpt>
      <trkpt lat="56.884842010883" lon="14.835762840228">
        <ele>183</ele>
        <time>2020-01-07T18:54:17Z</time>
      </trkpt>
      <trkpt lat="56.885029094891" lon="14.835737107795">
        <ele>183.4</ele>
        <time>2020-01-07T18:54:22Z</time>
      </trkpt>
      <trkpt lat="56.885238474753" lon="14.835667538025">
        <ele>182.8</ele>
        <time>2020-01-07T18:54:27Z</time>
      </trkpt>
      <trkpt lat="56.885391695885" lon="14.835572319641">
        <ele>181.8</ele>
        <time>2020-01-07T18:54:32Z</time>
      </trkpt>
      <trkpt lat="56.885596214245" lon="14.835455224498">
        <ele>181.6</ele>
        <time>2020-01-07T18:54:37Z</time>
      </trkpt>
      <trkpt lat="56.885795871103" lon="14.835370818765">
        <ele>181.8</ele>
        <time>2020-01-07T18:54:42Z</time>
      </trkpt>
      <trkpt lat="56.885892598229" lon="14.835346259798">
        <ele>183</ele>
        <time>2020-01-07T18:54:45Z</time>
      </trkpt>
      <trkpt lat="56.885943895457" lon="14.835314743854">
        <ele>184</ele>
        <time>2020-01-07T18:54:47Z</time>
      </trkpt>
      <trkpt lat="56.88613810408" lon="14.83531340275">
        <ele>185.2</ele>
        <time>2020-01-07T18:54:58Z</time>
      </trkpt>
      <trkpt lat="56.886320661862" lon="14.835412728265">
        <ele>185.6</ele>
        <time>2020-01-07T18:55:13Z</time>
      </trkpt>
      <trkpt lat="56.886449659303" lon="14.835658317935">
        <ele>185.8</ele>
        <time>2020-01-07T18:55:20Z</time>
      </trkpt>
      <trkpt lat="56.886507410594" lon="14.835805001185">
        <ele>186.2</ele>
        <time>2020-01-07T18:55:22Z</time>
      </trkpt>
      <trkpt lat="56.886552672854" lon="14.835958306136">
        <ele>186.6</ele>
        <time>2020-01-07T18:55:24Z</time>
      </trkpt>
      <trkpt lat="56.886590642861" lon="14.836169613835">
        <ele>187.2</ele>
        <time>2020-01-07T18:55:27Z</time>
      </trkpt>
      <trkpt lat="56.886602964254" lon="14.836263658753">
        <ele>187.4</ele>
        <time>2020-01-07T18:55:28Z</time>
      </trkpt>
      <trkpt lat="56.886680832105" lon="14.836660290261">
        <ele>187</ele>
        <time>2020-01-07T18:55:32Z</time>
      </trkpt>
      <trkpt lat="56.886718718293" lon="14.836864976259">
        <ele>185.6</ele>
        <time>2020-01-07T18:55:34Z</time>
      </trkpt>
      <trkpt lat="56.88676926115" lon="14.837188014685">
        <ele>185</ele>
        <time>2020-01-07T18:55:38Z</time>
      </trkpt>
      <trkpt lat="56.886864395715" lon="14.837551705326">
        <ele>185.2</ele>
        <time>2020-01-07T18:55:43Z</time>
      </trkpt>
      <trkpt lat="56.886991632957" lon="14.837857896133">
        <ele>186.8</ele>
        <time>2020-01-07T18:55:48Z</time>
      </trkpt>
      <trkpt lat="56.887021221064" lon="14.837913132854">
        <ele>187</ele>
        <time>2020-01-07T18:55:49Z</time>
      </trkpt>
      <trkpt lat="56.887049300429" lon="14.838002148632">
        <ele>188</ele>
        <time>2020-01-07T18:55:51Z</time>
      </trkpt>
      <trkpt lat="56.887204617036" lon="14.838266262301">
        <ele>188.6</ele>
        <time>2020-01-07T18:55:56Z</time>
      </trkpt>
      <trkpt lat="56.88735431777" lon="14.838509085944">
        <ele>188.6</ele>
        <time>2020-01-07T18:56:00Z</time>
      </trkpt>
      <trkpt lat="56.887407542835" lon="14.8386284442">
        <ele>188.8</ele>
        <time>2020-01-07T18:56:02Z</time>
      </trkpt>
      <trkpt lat="56.887533606611" lon="14.838938658319">
        <ele>188</ele>
        <time>2020-01-07T18:56:08Z</time>
      </trkpt>
      <trkpt lat="56.887505694884" lon="14.838973610842">
        <ele>188</ele>
        <time>2020-01-07T18:56:10Z</time>
      </trkpt>
      <trkpt lat="56.887482896116" lon="14.838987021882">
        <ele>188.4</ele>
        <time>2020-01-07T18:56:12Z</time>
      </trkpt>
      <trkpt lat="56.887419277495" lon="14.839022728776">
        <ele>188.8</ele>
        <time>2020-01-07T18:56:17Z</time>
      </trkpt>
      <trkpt lat="56.887382313316" lon="14.839062458982">
        <ele>188.8</ele>
        <time>2020-01-07T18:56:20Z</time>
      </trkpt>
      <trkpt lat="56.887345265318" lon="14.839088107596">
        <ele>188.6</ele>
        <time>2020-01-07T18:56:23Z</time>
      </trkpt>
      <trkpt lat="56.887241413577" lon="14.839155833348">
        <ele>188.6</ele>
        <time>2020-01-07T18:56:31Z</time>
      </trkpt>
      <trkpt lat="56.887123312606" lon="14.839186846378">
        <ele>188.6</ele>
        <time>2020-01-07T18:56:39Z</time>
      </trkpt>
      <trkpt lat="56.886958272995" lon="14.839205035101">
        <ele>188.4</ele>
        <time>2020-01-07T18:56:54Z</time>
      </trkpt>
      <trkpt lat="56.886939246082" lon="14.839205202739">
        <ele>188.4</ele>
        <time>2020-01-07T18:56:56Z</time>
      </trkpt>
      <trkpt lat="56.886921979368" lon="14.839204448368">
        <ele>188.4</ele>
        <time>2020-01-07T18:56:59Z</time>
      </trkpt>
      <trkpt lat="56.886904461197" lon="14.839217859408">
        <ele>188.4</ele>
        <time>2020-01-07T18:57:01Z</time>
      </trkpt>
      <trkpt lat="56.886899934971" lon="14.839220625435">
        <ele>188.8</ele>
        <time>2020-01-07T18:57:03Z</time>
      </trkpt>
      <trkpt lat="56.886887781216" lon="14.839223726738">
        <ele>189.2</ele>
        <time>2020-01-07T18:57:05Z</time>
      </trkpt>
      <trkpt lat="56.886873112891" lon="14.839225738394">
        <ele>189.2</ele>
        <time>2020-01-07T18:57:07Z</time>
      </trkpt>
      <trkpt lat="56.886856181453" lon="14.839188271301">
        <ele>188.8</ele>
        <time>2020-01-07T18:57:10Z</time>
      </trkpt>
      <trkpt lat="56.886798262524" lon="14.839134375684">
        <ele>188.4</ele>
        <time>2020-01-07T18:57:16Z</time>
      </trkpt>
      <trkpt lat="56.886774122652" lon="14.839112834201">
        <ele>188.8</ele>
        <time>2020-01-07T18:57:19Z</time>
      </trkpt>
      <trkpt lat="56.886757107395" lon="14.839109146165">
        <ele>189.6</ele>
        <time>2020-01-07T18:57:23Z</time>
      </trkpt>
      <trkpt lat="56.886745959468" lon="14.839092885279">
        <ele>189.6</ele>
        <time>2020-01-07T18:57:26Z</time>
      </trkpt>
      <trkpt lat="56.886737326111" lon="14.839069835054">
        <ele>189.4</ele>
        <time>2020-01-07T18:57:28Z</time>
      </trkpt>
      <trkpt lat="56.886721316682" lon="14.839043264431">
        <ele>189.4</ele>
        <time>2020-01-07T18:57:30Z</time>
      </trkpt>
      <trkpt lat="56.886704301425" lon="14.839026332993">
        <ele>189.2</ele>
        <time>2020-01-07T18:57:32Z</time>
      </trkpt>
      <trkpt lat="56.886695416611" lon="14.839017783455">
        <ele>189.2</ele>
        <time>2020-01-07T18:57:34Z</time>
      </trkpt>
      <trkpt lat="56.886687872901" lon="14.838995822877">
        <ele>189</ele>
        <time>2020-01-07T18:57:37Z</time>
      </trkpt>
      <trkpt lat="56.886675216232" lon="14.838953159006">
        <ele>188.8</ele>
        <time>2020-01-07T18:57:41Z</time>
      </trkpt>
      <trkpt lat="56.886659625898" lon="14.838944860925">
        <ele>188.8</ele>
        <time>2020-01-07T18:57:44Z</time>
      </trkpt>
      <trkpt lat="56.886556193252" lon="14.838815863484">
        <ele>188.6</ele>
        <time>2020-01-07T18:58:02Z</time>
      </trkpt>
      <trkpt lat="56.886553511044" lon="14.838810415249">
        <ele>188.6</ele>
        <time>2020-01-07T18:58:06Z</time>
      </trkpt>
      <trkpt lat="56.88655216994" lon="14.838805972842">
        <ele>188.6</ele>
        <time>2020-01-07T18:58:07Z</time>
      </trkpt>
      <trkpt lat="56.886546889343" lon="14.83880027315">
        <ele>188.8</ele>
        <time>2020-01-07T18:58:10Z</time>
      </trkpt>
      <trkpt lat="56.886507326775" lon="14.838771607052">
        <ele>189</ele>
        <time>2020-01-07T18:58:21Z</time>
      </trkpt>
      <trkpt lat="56.886486372025" lon="14.838735313425">
        <ele>188.8</ele>
        <time>2020-01-07T18:58:24Z</time>
      </trkpt>
      <trkpt lat="56.886348741227" lon="14.838488550289">
        <ele>189.6</ele>
        <time>2020-01-07T18:58:36Z</time>
      </trkpt>
      <trkpt lat="56.886217145397" lon="14.838260646428">
        <ele>189.4</ele>
        <time>2020-01-07T18:58:43Z</time>
      </trkpt>
      <trkpt lat="56.886062918437" lon="14.838027964884">
        <ele>189</ele>
        <time>2020-01-07T18:58:51Z</time>
      </trkpt>
      <trkpt lat="56.885923192164" lon="14.837858315228">
        <ele>188.2</ele>
        <time>2020-01-07T18:58:58Z</time>
      </trkpt>
      <trkpt lat="56.885807773401" lon="14.837761336645">
        <ele>187</ele>
        <time>2020-01-07T18:59:04Z</time>
      </trkpt>
      <trkpt lat="56.885638878116" lon="14.837596967586">
        <ele>186.2</ele>
        <time>2020-01-07T18:59:11Z</time>
      </trkpt>
      <trkpt lat="56.885586239784" lon="14.837561512149">
        <ele>186</ele>
        <time>2020-01-07T18:59:13Z</time>
      </trkpt>
      <trkpt lat="56.88545246466" lon="14.837455313476">
        <ele>184.8</ele>
        <time>2020-01-07T18:59:18Z</time>
      </trkpt>
      <trkpt lat="56.885280887167" lon="14.837317012126">
        <ele>183.8</ele>
        <time>2020-01-07T18:59:25Z</time>
      </trkpt>
      <trkpt lat="56.885144429835" lon="14.837133867611">
        <ele>182.6</ele>
        <time>2020-01-07T18:59:31Z</time>
      </trkpt>
      <trkpt lat="56.885002440449" lon="14.836878219661">
        <ele>182.4</ele>
        <time>2020-01-07T18:59:38Z</time>
      </trkpt>
      <trkpt lat="56.884847878213" lon="14.836637994407">
        <ele>182.2</ele>
        <time>2020-01-07T18:59:45Z</time>
      </trkpt>
      <trkpt lat="56.884705134456" lon="14.836428363088">
        <ele>182</ele>
        <time>2020-01-07T18:59:52Z</time>
      </trkpt>
      <trkpt lat="56.884554930808" lon="14.83623876451">
        <ele>182.6</ele>
        <time>2020-01-07T18:59:59Z</time>
      </trkpt>
      <trkpt lat="56.884391986672" lon="14.836023014404">
        <ele>182.2</ele>
        <time>2020-01-07T19:00:08Z</time>
      </trkpt>
      <trkpt lat="56.884293415528" lon="14.835888484909">
        <ele>181.6</ele>
        <time>2020-01-07T19:00:12Z</time>
      </trkpt>
      <trkpt lat="56.884223510482" lon="14.835801061692">
        <ele>180.4</ele>
        <time>2020-01-07T19:00:15Z</time>
      </trkpt>
      <trkpt lat="56.884131393401" lon="14.835662676523">
        <ele>179</ele>
        <time>2020-01-07T19:00:19Z</time>
      </trkpt>
      <trkpt lat="56.884041455614" lon="14.835528314666">
        <ele>178</ele>
        <time>2020-01-07T19:00:23Z</time>
      </trkpt>
      <trkpt lat="56.883881361324" lon="14.835357994458">
        <ele>177</ele>
        <time>2020-01-07T19:00:30Z</time>
      </trkpt>
      <trkpt lat="56.883813887029" lon="14.835286077756">
        <ele>176.8</ele>
        <time>2020-01-07T19:00:33Z</time>
      </trkpt>
      <trkpt lat="56.883642477174" lon="14.835086588536">
        <ele>176.6</ele>
        <time>2020-01-07T19:00:41Z</time>
      </trkpt>
      <trkpt lat="56.883449022922" lon="14.83498986141">
        <ele>177.2</ele>
        <time>2020-01-07T19:00:48Z</time>
      </trkpt>
      <trkpt lat="56.88326311238" lon="14.834894559207">
        <ele>177.2</ele>
        <time>2020-01-07T19:00:55Z</time>
      </trkpt>
      <trkpt lat="56.883089104136" lon="14.834765477947">
        <ele>177.4</ele>
        <time>2020-01-07T19:01:02Z</time>
      </trkpt>
      <trkpt lat="56.882974691201" lon="14.834591218246">
        <ele>176.8</ele>
        <time>2020-01-07T19:01:08Z</time>
      </trkpt>
      <trkpt lat="56.882965722568" lon="14.834238759351">
        <ele>177</ele>
        <time>2020-01-07T19:01:15Z</time>
      </trkpt>
      <trkpt lat="56.883115088026" lon="14.834005658712">
        <ele>175.6</ele>
        <time>2020-01-07T19:01:22Z</time>
      </trkpt>
      <trkpt lat="56.883136797147" lon="14.83398403341">
        <ele>174.4</ele>
        <time>2020-01-07T19:01:23Z</time>
      </trkpt>
      <trkpt lat="56.883204355261" lon="14.833859562195">
        <ele>174.8</ele>
        <time>2020-01-07T19:01:27Z</time>
      </trkpt>
      <trkpt lat="56.883243079639" lon="14.833734420428">
        <ele>174.4</ele>
        <time>2020-01-07T19:01:31Z</time>
      </trkpt>
      <trkpt lat="56.883270236995" lon="14.833691086005">
        <ele>174.4</ele>
        <time>2020-01-07T19:01:33Z</time>
      </trkpt>
      <trkpt lat="56.883363527542" lon="14.83383902654">
        <ele>175.6</ele>
        <time>2020-01-07T19:01:38Z</time>
      </trkpt>
      <trkpt lat="56.883503169996" lon="14.83397229875">
        <ele>176.6</ele>
        <time>2020-01-07T19:01:42Z</time>
      </trkpt>
      <trkpt lat="56.883705425243" lon="14.83410976191">
        <ele>175.8</ele>
        <time>2020-01-07T19:01:47Z</time>
      </trkpt>
      <trkpt lat="56.883904746825" lon="14.834232221469">
        <ele>175.8</ele>
        <time>2020-01-07T19:01:52Z</time>
      </trkpt>
      <trkpt lat="56.883984039599" lon="14.83428326724">
        <ele>175.8</ele>
        <time>2020-01-07T19:01:54Z</time>
      </trkpt>
      <trkpt lat="56.884066182219" lon="14.834336827581">
        <ele>175.4</ele>
        <time>2020-01-07T19:01:56Z</time>
      </trkpt>
      <trkpt lat="56.884106247701" lon="14.834367589154">
        <ele>175.2</ele>
        <time>2020-01-07T19:01:57Z</time>
      </trkpt>
      <trkpt lat="56.884176068928" lon="14.834439086761">
        <ele>175</ele>
        <time>2020-01-07T19:01:59Z</time>
      </trkpt>
      <trkpt lat="56.88431420264" lon="14.834720970058">
        <ele>175.4</ele>
        <time>2020-01-07T19:02:04Z</time>
      </trkpt>
      <trkpt lat="56.884425011358" lon="14.83496220114">
        <ele>176.4</ele>
        <time>2020-01-07T19:02:08Z</time>
      </trkpt>
      <trkpt lat="56.884453006904" lon="14.835025987399">
        <ele>176.6</ele>
        <time>2020-01-07T19:02:09Z</time>
      </trkpt>
      <trkpt lat="56.884565492002" lon="14.835350031653">
        <ele>177.8</ele>
        <time>2020-01-07T19:02:14Z</time>
      </trkpt>
      <trkpt lat="56.884654172504" lon="14.835564775931">
        <ele>178.4</ele>
        <time>2020-01-07T19:02:18Z</time>
      </trkpt>
      <trkpt lat="56.884670349571" lon="14.8356025783">
        <ele>178.8</ele>
        <time>2020-01-07T19:02:19Z</time>
      </trkpt>
      <trkpt lat="56.884723909912" lon="14.835657144469">
        <ele>180.4</ele>
        <time>2020-01-07T19:02:21Z</time>
      </trkpt>
      <trkpt lat="56.884768250163" lon="14.835692348449">
        <ele>181.6</ele>
        <time>2020-01-07T19:02:23Z</time>
      </trkpt>
      <trkpt lat="56.884967320288" lon="14.835719589624">
        <ele>182.4</ele>
        <time>2020-01-07T19:02:30Z</time>
      </trkpt>
      <trkpt lat="56.885187931896" lon="14.835669046767">
        <ele>182.2</ele>
        <time>2020-01-07T19:02:35Z</time>
      </trkpt>
      <trkpt lat="56.885384403632" lon="14.835572906374">
        <ele>181.8</ele>
        <time>2020-01-07T19:02:39Z</time>
      </trkpt>
      <trkpt lat="56.885580204816" lon="14.835472407393">
        <ele>181.4</ele>
        <time>2020-01-07T19:02:43Z</time>
      </trkpt>
      <trkpt lat="56.885778101475" lon="14.835356234259">
        <ele>181</ele>
        <time>2020-01-07T19:02:47Z</time>
      </trkpt>
      <trkpt lat="56.885817328767" lon="14.835341565934">
        <ele>180.8</ele>
        <time>2020-01-07T19:02:48Z</time>
      </trkpt>
      <trkpt lat="56.886008771363" lon="14.835330418007">
        <ele>182</ele>
        <time>2020-01-07T19:02:57Z</time>
      </trkpt>
      <trkpt lat="56.886057302564" lon="14.835332094387">
        <ele>182</ele>
        <time>2020-01-07T19:03:02Z</time>
      </trkpt>
      <trkpt lat="56.886107593964" lon="14.835340811563">
        <ele>182.2</ele>
        <time>2020-01-07T19:03:05Z</time>
      </trkpt>
      <trkpt lat="56.886206165108" lon="14.835350199291">
        <ele>182</ele>
        <time>2020-01-07T19:03:13Z</time>
      </trkpt>
      <trkpt lat="56.886245979133" lon="14.835374087706">
        <ele>182.2</ele>
        <time>2020-01-07T19:03:17Z</time>
      </trkpt>
      <trkpt lat="56.886283027131" lon="14.835403424356">
        <ele>182.4</ele>
        <time>2020-01-07T19:03:20Z</time>
      </trkpt>
      <trkpt lat="56.886315465084" lon="14.835445250037">
        <ele>182.4</ele>
        <time>2020-01-07T19:03:24Z</time>
      </trkpt>
      <trkpt lat="56.886349411779" lon="14.835468216443">
        <ele>180.8</ele>
        <time>2020-01-07T19:03:27Z</time>
      </trkpt>
      <trkpt lat="56.886375563307" lon="14.835525967734">
        <ele>182.4</ele>
        <time>2020-01-07T19:03:29Z</time>
      </trkpt>
      <trkpt lat="56.886439181928" lon="14.835696958494">
        <ele>180</ele>
        <time>2020-01-07T19:03:32Z</time>
      </trkpt>
      <trkpt lat="56.886493831916" lon="14.835834254016">
        <ele>180.8</ele>
        <time>2020-01-07T19:03:34Z</time>
      </trkpt>
      <trkpt lat="56.886519396711" lon="14.835903069415">
        <ele>181.2</ele>
        <time>2020-01-07T19:03:35Z</time>
      </trkpt>
      <trkpt lat="56.88653456795" lon="14.835970208434">
        <ele>181.2</ele>
        <time>2020-01-07T19:03:36Z</time>
      </trkpt>
      <trkpt lat="56.886562647315" lon="14.836111024354">
        <ele>182.2</ele>
        <time>2020-01-07T19:03:38Z</time>
      </trkpt>
      <trkpt lat="56.886631462714" lon="14.836497849039">
        <ele>182.4</ele>
        <time>2020-01-07T19:03:42Z</time>
      </trkpt>
      <trkpt lat="56.886680580648" lon="14.836726926366">
        <ele>181.8</ele>
        <time>2020-01-07T19:03:44Z</time>
      </trkpt>
      <trkpt lat="56.886731794057" lon="14.836917111677">
        <ele>180.6</ele>
        <time>2020-01-07T19:03:46Z</time>
      </trkpt>
      <trkpt lat="56.886826928622" lon="14.837247861451">
        <ele>180.2</ele>
        <time>2020-01-07T19:03:50Z</time>
      </trkpt>
      <trkpt lat="56.886892642718" lon="14.837555896276">
        <ele>180.2</ele>
        <time>2020-01-07T19:03:54Z</time>
      </trkpt>
      <trkpt lat="56.886908987423" lon="14.837617251784">
        <ele>180.8</ele>
        <time>2020-01-07T19:03:55Z</time>
      </trkpt>
      <trkpt lat="56.886963302135" lon="14.837774831504">
        <ele>181.8</ele>
        <time>2020-01-07T19:03:58Z</time>
      </trkpt>
      <trkpt lat="56.88700060159" lon="14.837876755408">
        <ele>183</ele>
        <time>2020-01-07T19:04:00Z</time>
      </trkpt>
      <trkpt lat="56.887061202727" lon="14.838036514422">
        <ele>184</ele>
        <time>2020-01-07T19:04:03Z</time>
      </trkpt>
      <trkpt lat="56.88710369896" lon="14.838145982036">
        <ele>184.4</ele>
        <time>2020-01-07T19:04:05Z</time>
      </trkpt>
      <trkpt lat="56.887202856837" lon="14.838309596724">
        <ele>184.2</ele>
        <time>2020-01-07T19:04:08Z</time>
      </trkpt>
      <trkpt lat="56.88725541135" lon="14.838433648844">
        <ele>184.2</ele>
        <time>2020-01-07T19:04:10Z</time>
      </trkpt>
      <trkpt lat="56.887303020542" lon="14.838542194449">
        <ele>184.2</ele>
        <time>2020-01-07T19:04:12Z</time>
      </trkpt>
      <trkpt lat="56.887418774581" lon="14.838766913188">
        <ele>184.4</ele>
        <time>2020-01-07T19:04:16Z</time>
      </trkpt>
      <trkpt lat="56.887475100949" lon="14.838936143749">
        <ele>183.8</ele>
        <time>2020-01-07T19:04:20Z</time>
      </trkpt>
      <trkpt lat="56.887452218362" lon="14.839002863673">
        <ele>184</ele>
        <time>2020-01-07T19:04:25Z</time>
      </trkpt>
      <trkpt lat="56.887440735159" lon="14.839025327165">
        <ele>184</ele>
        <time>2020-01-07T19:04:28Z</time>
      </trkpt>
      <trkpt lat="56.887474681854" lon="14.838989620271">
        <ele>183.8</ele>
        <time>2020-01-07T19:04:46Z</time>
      </trkpt>
      <trkpt lat="56.886646717772" lon="14.836583679695">
        <ele>181</ele>
        <time>2020-01-07T19:09:13Z</time>
      </trkpt>
      <trkpt lat="56.886595504363" lon="14.836296767258">
        <ele>182.2</ele>
        <time>2020-01-07T19:09:21Z</time>
      </trkpt>
      <trkpt lat="56.886579243477" lon="14.83621026605">
        <ele>183.2</ele>
        <time>2020-01-07T19:09:24Z</time>
      </trkpt>
      <trkpt lat="56.886565916256" lon="14.836010693011">
        <ele>184.2</ele>
        <time>2020-01-07T19:09:31Z</time>
      </trkpt>
      <trkpt lat="56.886535992873" lon="14.835874654774">
        <ele>183.2</ele>
        <time>2020-01-07T19:09:35Z</time>
      </trkpt>
      <trkpt lat="56.886484360369" lon="14.835751273206">
        <ele>182.2</ele>
        <time>2020-01-07T19:09:39Z</time>
      </trkpt>
      <trkpt lat="56.886339688775" lon="14.835524375173">
        <ele>182</ele>
        <time>2020-01-07T19:09:49Z</time>
      </trkpt>
      <trkpt lat="56.886172050775" lon="14.835421026346">
        <ele>181.6</ele>
        <time>2020-01-07T19:09:59Z</time>
      </trkpt>
      <trkpt lat="56.885981781645" lon="14.835425552572">
        <ele>181.4</ele>
        <time>2020-01-07T19:10:08Z</time>
      </trkpt>
      <trkpt lat="56.885909026753" lon="14.835429240608">
        <ele>181.2</ele>
        <time>2020-01-07T19:10:12Z</time>
      </trkpt>
      <trkpt lat="56.885817999319" lon="14.835431671359">
        <ele>179.8</ele>
        <time>2020-01-07T19:10:16Z</time>
      </trkpt>
      <trkpt lat="56.885749938291" lon="14.835450446815">
        <ele>178.6</ele>
        <time>2020-01-07T19:10:19Z</time>
      </trkpt>
      <trkpt lat="56.885559836799" lon="14.83553971405">
        <ele>179</ele>
        <time>2020-01-07T19:10:29Z</time>
      </trkpt>
      <trkpt lat="56.885379039216" lon="14.835610792562">
        <ele>179.4</ele>
        <time>2020-01-07T19:10:38Z</time>
      </trkpt>
      <trkpt lat="56.885286586859" lon="14.835689917698">
        <ele>179.6</ele>
        <time>2020-01-07T19:10:44Z</time>
      </trkpt>
      <trkpt lat="56.885281809176" lon="14.835699137788">
        <ele>179.6</ele>
        <time>2020-01-07T19:10:45Z</time>
      </trkpt>
      <trkpt lat="56.88527476838" lon="14.835709363706">
        <ele>179.6</ele>
        <time>2020-01-07T19:10:46Z</time>
      </trkpt>
      <trkpt lat="56.883774827375" lon="14.832130124768">
        <ele>171</ele>
        <time>2020-01-07T19:15:26Z</time>
      </trkpt>
      <trkpt lat="56.883779688877" lon="14.832108080371">
        <ele>170.8</ele>
        <time>2020-01-07T19:15:27Z</time>
      </trkpt>
      <trkpt lat="56.8837894957" lon="14.832092992951">
        <ele>170.6</ele>
        <time>2020-01-07T19:15:28Z</time>
      </trkpt>
      <trkpt lat="56.883895359097" lon="14.831902891459">
        <ele>169.8</ele>
        <time>2020-01-07T19:15:37Z</time>
      </trkpt>
      <trkpt lat="56.88403676175" lon="14.83165302702">
        <ele>169.8</ele>
        <time>2020-01-07T19:15:46Z</time>
      </trkpt>
      <trkpt lat="56.884152515789" lon="14.831468038487">
        <ele>169.8</ele>
        <time>2020-01-07T19:15:54Z</time>
      </trkpt>
      <trkpt lat="56.884322081626" lon="14.831512714014">
        <ele>169.4</ele>
        <time>2020-01-07T19:16:06Z</time>
      </trkpt>
      <trkpt lat="56.884384107686" lon="14.831621008162">
        <ele>169.2</ele>
        <time>2020-01-07T19:16:10Z</time>
      </trkpt>
      <trkpt lat="56.884525510339" lon="14.83184413434">
        <ele>169.2</ele>
        <time>2020-01-07T19:16:18Z</time>
      </trkpt>
      <trkpt lat="56.884568509486" lon="14.831930132634">
        <ele>169.2</ele>
        <time>2020-01-07T19:16:22Z</time>
      </trkpt>
      <trkpt lat="56.884707397569" lon="14.83219533595">
        <ele>169.2</ele>
        <time>2020-01-07T19:16:33Z</time>
      </trkpt>
      <trkpt lat="56.884861205434" lon="14.832405134907">
        <ele>170.4</ele>
        <time>2020-01-07T19:16:42Z</time>
      </trkpt>
      <trkpt lat="56.884898588708" lon="14.832433465729">
        <ele>171.2</ele>
        <time>2020-01-07T19:16:44Z</time>
      </trkpt>
      <trkpt lat="56.884954998895" lon="14.832508148458">
        <ele>172.4</ele>
        <time>2020-01-07T19:16:48Z</time>
      </trkpt>
      <trkpt lat="56.884990538151" lon="14.832545196456">
        <ele>173.2</ele>
        <time>2020-01-07T19:16:50Z</time>
      </trkpt>
      <trkpt lat="56.885001853716" lon="14.832562546989">
        <ele>173.6</ele>
        <time>2020-01-07T19:16:51Z</time>
      </trkpt>
      <trkpt lat="56.885057760989" lon="14.83260688724">
        <ele>174.6</ele>
        <time>2020-01-07T19:16:55Z</time>
      </trkpt>
      <trkpt lat="56.885107046561" lon="14.832639241374">
        <ele>175.8</ele>
        <time>2020-01-07T19:16:59Z</time>
      </trkpt>
      <trkpt lat="56.885140825618" lon="14.832647790912">
        <ele>176.8</ele>
        <time>2020-01-07T19:17:02Z</time>
      </trkpt>
      <trkpt lat="56.887111494127" lon="14.831959888379">
        <ele>179.6</ele>
        <time>2020-01-07T19:20:39Z</time>
      </trkpt>
      <trkpt lat="56.887118954018" lon="14.831923091838">
        <ele>176.6</ele>
        <time>2020-01-07T19:20:40Z</time>
      </trkpt>
      <trkpt lat="56.887130269583" lon="14.831840530123">
        <ele>174.8</ele>
        <time>2020-01-07T19:20:42Z</time>
      </trkpt>
      <trkpt lat="56.887135298723" lon="14.831806164333">
        <ele>173.6</ele>
        <time>2020-01-07T19:20:43Z</time>
      </trkpt>
      <trkpt lat="56.887156085835" lon="14.831733157984">
        <ele>172.4</ele>
        <time>2020-01-07T19:20:45Z</time>
      </trkpt>
      <trkpt lat="56.887291118244" lon="14.831508690702">
        <ele>171.4</ele>
        <time>2020-01-07T19:20:52Z</time>
      </trkpt>
      <trkpt lat="56.887472083465" lon="14.831387236971">
        <ele>170.8</ele>
        <time>2020-01-07T19:21:00Z</time>
      </trkpt>
      <trkpt lat="56.887646343166" lon="14.83128506161">
        <ele>170.8</ele>
        <time>2020-01-07T19:21:11Z</time>
      </trkpt>
      <trkpt lat="56.887827559844" lon="14.83117525872">
        <ele>171</ele>
        <time>2020-01-07T19:21:20Z</time>
      </trkpt>
      <trkpt lat="56.888000143165" lon="14.831075011196">
        <ele>170.8</ele>
        <time>2020-01-07T19:21:28Z</time>
      </trkpt>
      <trkpt lat="56.888179599644" lon="14.830915000725">
        <ele>171</ele>
        <time>2020-01-07T19:21:36Z</time>
      </trkpt>
      <trkpt lat="56.88823777003" lon="14.830759851756">
        <ele>171.2</ele>
        <time>2020-01-07T19:21:41Z</time>
      </trkpt>
      <trkpt lat="56.888269537431" lon="14.830431700371">
        <ele>171.4</ele>
        <time>2020-01-07T19:21:49Z</time>
      </trkpt>
      <trkpt lat="56.888322008125" lon="14.830115451284">
        <ele>170.6</ele>
        <time>2020-01-07T19:21:57Z</time>
      </trkpt>
      <trkpt lat="56.888355368087" lon="14.830022998927">
        <ele>170.8</ele>
        <time>2020-01-07T19:22:00Z</time>
      </trkpt>
      <trkpt lat="56.88837690957" lon="14.82996742693">
        <ele>170.6</ele>
        <time>2020-01-07T19:22:02Z</time>
      </trkpt>
      <trkpt lat="56.888423093839" lon="14.829907999259">
        <ele>170.4</ele>
        <time>2020-01-07T19:22:05Z</time>
      </trkpt>
      <trkpt lat="56.888575225324" lon="14.829811272133">
        <ele>170.6</ele>
        <time>2020-01-07T19:22:14Z</time>
      </trkpt>
      <trkpt lat="56.888768595757" lon="14.829746228589">
        <ele>170.8</ele>
        <time>2020-01-07T19:22:23Z</time>
      </trkpt>
      <trkpt lat="56.888955931222" lon="14.829702223614">
        <ele>171</ele>
        <time>2020-01-07T19:22:32Z</time>
      </trkpt>
      <trkpt lat="56.889144440153" lon="14.829631396559">
        <ele>171.2</ele>
        <time>2020-01-07T19:22:42Z</time>
      </trkpt>
      <trkpt lat="56.889165311084" lon="14.829632653844">
        <ele>171.4</ele>
        <time>2020-01-07T19:22:43Z</time>
      </trkpt>
      <trkpt lat="56.88935675368" lon="14.829593510371">
        <ele>171.8</ele>
        <time>2020-01-07T19:22:53Z</time>
      </trkpt>
      <trkpt lat="56.88941291241" lon="14.829569789594">
        <ele>171.8</ele>
        <time>2020-01-07T19:22:55Z</time>
      </trkpt>
      <trkpt lat="56.889727485117" lon="14.829232753395">
        <ele>172</ele>
        <time>2020-01-07T19:23:29Z</time>
      </trkpt>
      <trkpt lat="56.88978003963" lon="14.828919437973">
        <ele>172.2</ele>
        <time>2020-01-07T19:23:38Z</time>
      </trkpt>
      <trkpt lat="56.889901660999" lon="14.828657922693">
        <ele>172</ele>
        <time>2020-01-07T19:23:46Z</time>
      </trkpt>
      <trkpt lat="56.889995705917" lon="14.82847125778">
        <ele>172.4</ele>
        <time>2020-01-07T19:23:52Z</time>
      </trkpt>
      <trkpt lat="56.890143562633" lon="14.828222399169">
        <ele>171.8</ele>
        <time>2020-01-07T19:24:01Z</time>
      </trkpt>
      <trkpt lat="56.890267363296" lon="14.827939929139">
        <ele>171.6</ele>
        <time>2020-01-07T19:24:07Z</time>
      </trkpt>
      <trkpt lat="56.890236266447" lon="14.827586045321">
        <ele>171.4</ele>
        <time>2020-01-07T19:24:14Z</time>
      </trkpt>
      <trkpt lat="56.890234506248" lon="14.827546650391">
        <ele>171.4</ele>
        <time>2020-01-07T19:24:15Z</time>
      </trkpt>
      <trkpt lat="56.890229644746" lon="14.827187485976">
        <ele>171.4</ele>
        <time>2020-01-07T19:24:24Z</time>
      </trkpt>
      <trkpt lat="56.890239535388" lon="14.826838966574">
        <ele>171.4</ele>
        <time>2020-01-07T19:24:32Z</time>
      </trkpt>
      <trkpt lat="56.890245151261" lon="14.826495224855">
        <ele>171.6</ele>
        <time>2020-01-07T19:24:40Z</time>
      </trkpt>
      <trkpt lat="56.890288150408" lon="14.826170929144">
        <ele>171.6</ele>
        <time>2020-01-07T19:24:47Z</time>
      </trkpt>
      <trkpt lat="56.890372053227" lon="14.82583179747">
        <ele>172.4</ele>
        <time>2020-01-07T19:24:55Z</time>
      </trkpt>
      <trkpt lat="56.890460901367" lon="14.825515716021">
        <ele>173.4</ele>
        <time>2020-01-07T19:25:04Z</time>
      </trkpt>
      <trkpt lat="56.890596604328" lon="14.82528781216">
        <ele>173.2</ele>
        <time>2020-01-07T19:25:12Z</time>
      </trkpt>
      <trkpt lat="56.890651924868" lon="14.825121347626">
        <ele>173.6</ele>
        <time>2020-01-07T19:25:16Z</time>
      </trkpt>
      <trkpt lat="56.890759380826" lon="14.824833261723">
        <ele>173.8</ele>
        <time>2020-01-07T19:25:25Z</time>
      </trkpt>
      <trkpt lat="56.890806487104" lon="14.82471616658">
        <ele>174.6</ele>
        <time>2020-01-07T19:25:29Z</time>
      </trkpt>
      <trkpt lat="56.890887623896" lon="14.824608291527">
        <ele>176</ele>
        <time>2020-01-07T19:25:34Z</time>
      </trkpt>
      <trkpt lat="56.890953086535" lon="14.824511312944">
        <ele>177</ele>
        <time>2020-01-07T19:25:38Z</time>
      </trkpt>
      <trkpt lat="56.891043108141" lon="14.82438927248">
        <ele>178</ele>
        <time>2020-01-07T19:25:44Z</time>
      </trkpt>
      <trkpt lat="56.891163220768" lon="14.824212582028">
        <ele>177.2</ele>
        <time>2020-01-07T19:25:51Z</time>
      </trkpt>
    </trkseg>
  </trk>
</gpx>